Time,TemperatureF,DewpointF,PressureIn,WindDirection,WindDirectionDegrees,WindSpeedMPH,WindSpeedGustMPH,Humidity,HourlyPrecipIn,Conditions,Clouds,dailyrainin,SoftwareType,DateUTC
2013-01-23 00:00:00,36.0,34.9,29.94,NE,45,0.0,0.0,96,0.00,,,0.00,WUHU21636XXSP,2013-01-23 08:00:00,
2013-01-23 00:03:00,36.0,34.9,29.94,NE,45,0.0,0.0,96,0.00,,,0.00,WUHU21636XXSP,2013-01-23 08:03:00,
2013-01-23 00:05:00,35.8,34.7,29.93,East,90,0.0,0.0,96,0.00,,,0.00,WUHU21636XXSP,2013-01-23 08:05:00,
2013-01-23 00:08:00,35.8,34.4,29.93,ESE,112,0.0,0.0,95,0.00,,,0.00,WUHU21636XXSP,2013-01-23 08:08:00,
2013-01-23 00:09:00,35.8,34.4,29.93,ESE,112,0.0,0.0,95,0.00,,,0.00,WUHU21636XXSP,2013-01-23 08:09:00,
2013-01-23 00:10:00,35.8,34.4,29.93,ESE,112,0.0,0.0,95,0.00,,,0.00,WUHU21636XXSP,2013-01-23 08:10:00,
2013-01-23 00:13:00,35.8,34.4,29.92,ESE,112,0.0,0.0,95,0.00,,,0.00,WUHU21636XXSP,2013-01-23 08:13:00,
2013-01-23 00:14:00,35.8,34.4,29.92,ESE,112,0.0,0.0,95,0.00,,,0.00,WUHU21636XXSP,2013-01-23 08:14:00,
2013-01-23 00:15:00,35.8,34.4,29.92,NE,45,0.0,0.0,95,0.00,,,0.00,WUHU21636XXSP,2013-01-23 08:15:00,
2013-01-23 00:18:00,35.8,34.4,29.91,NE,45,0.0,0.0,95,0.00,,,0.00,WUHU21636XXSP,2013-01-23 08:18:00,
2013-01-23 00:19:00,35.8,34.4,29.91,NE,45,0.0,0.0,95,0.00,,,0.00,WUHU21636XXSP,2013-01-23 08:19:00,
2013-01-23 00:20:00,35.8,34.4,29.91,NE,45,0.0,0.0,95,0.00,,,0.00,WUHU21636XXSP,2013-01-23 08:20:00,
2013-01-23 00:23:00,36.0,34.6,29.93,SE,135,0.0,0.0,95,0.00,,,0.00,WUHU21636XXSP,2013-01-23 08:23:00,
2013-01-23 00:24:00,36.0,34.6,29.94,SE,135,0.0,0.0,95,0.00,,,0.00,WUHU21636XXSP,2013-01-23 08:24:00,
2013-01-23 00:25:00,36.0,34.6,29.94,SE,135,0.0,0.0,95,0.00,,,0.00,WUHU21636XXSP,2013-01-23 08:25:00,
2013-01-23 00:29:00,36.0,34.6,29.94,SE,135,0.0,0.0,95,0.00,,,0.00,WUHU21636XXSP,2013-01-23 08:29:00,
2013-01-23 00:30:00,36.0,34.6,29.93,SE,135,0.0,0.0,95,0.00,,,0.00,WUHU21636XXSP,2013-01-23 08:30:00,
2013-01-23 00:34:00,36.0,34.6,29.94,SE,135,0.0,0.0,95,0.00,,,0.00,WUHU21636XXSP,2013-01-23 08:34:00,
2013-01-23 00:35:00,36.0,34.6,29.94,SE,135,0.0,0.0,95,0.00,,,0.00,WUHU21636XXSP,2013-01-23 08:35:00,
2013-01-23 00:36:00,36.0,34.6,29.93,SE,135,0.0,0.0,95,0.00,,,0.00,WUHU21636XXSP,2013-01-23 08:36:00,
2013-01-23 00:39:00,36.0,34.6,29.93,SE,135,0.0,0.0,95,0.00,,,0.00,WUHU21636XXSP,2013-01-23 08:39:00,
2013-01-23 00:40:00,36.0,34.6,29.94,SE,135,0.0,0.0,95,0.00,,,0.00,WUHU21636XXSP,2013-01-23 08:40:00,
2013-01-23 00:41:00,36.0,34.6,29.93,SE,135,0.0,0.0,95,0.00,,,0.00,WUHU21636XXSP,2013-01-23 08:41:00,
2013-01-23 00:44:00,36.1,34.7,29.93,SSE,157,0.0,0.0,95,0.00,,,0.00,WUHU21636XXSP,2013-01-23 08:44:00,
2013-01-23 00:45:00,36.1,34.7,29.94,SSE,157,0.0,0.0,95,0.00,,,0.00,WUHU21636XXSP,2013-01-23 08:45:00,
2013-01-23 00:46:00,36.1,34.7,29.94,SSE,157,0.0,0.0,95,0.00,,,0.00,WUHU21636XXSP,2013-01-23 08:46:00,
2013-01-23 00:49:00,36.0,34.6,29.92,North,0,4.9,4.9,95,0.00,,,0.00,WUHU21636XXSP,2013-01-23 08:49:00,
2013-01-23 00:50:00,36.0,34.6,29.92,North,0,4.9,4.9,95,0.00,,,0.00,WUHU21636XXSP,2013-01-23 08:50:00,
2013-01-23 00:52:00,36.0,34.6,29.91,North,0,4.9,4.9,95,0.00,,,0.00,WUHU21636XXSP,2013-01-23 08:52:00,
2013-01-23 00:54:00,35.8,34.4,29.91,East,90,1.7,4.9,95,0.00,,,0.00,WUHU21636XXSP,2013-01-23 08:54:00,
2013-01-23 00:55:00,35.8,34.4,29.91,East,90,1.7,4.9,95,0.00,,,0.00,WUHU21636XXSP,2013-01-23 08:55:00,
2013-01-23 00:57:00,35.8,34.4,29.90,NNE,22,2.2,4.9,95,0.00,,,0.00,WUHU21636XXSP,2013-01-23 08:57:00,
2013-01-23 00:59:00,35.8,34.4,29.90,NNE,22,2.2,4.9,95,0.00,,,0.00,WUHU21636XXSP,2013-01-23 08:59:00,
2013-01-23 01:00:00,35.8,34.4,29.90,NNE,22,2.2,4.9,95,0.00,,,0.00,WUHU21636XXSP,2013-01-23 09:00:00,
2013-01-23 01:02:00,35.8,34.4,29.90,NE,45,0.0,2.2,95,0.00,,,0.00,WUHU21636XXSP,2013-01-23 09:02:00,
2013-01-23 01:03:00,35.8,34.4,29.90,NE,45,0.0,2.2,95,0.00,,,0.00,WUHU21636XXSP,2013-01-23 09:03:00,
2013-01-23 01:05:00,36.0,34.6,29.92,SE,135,0.0,2.2,95,0.00,,,0.00,WUHU21636XXSP,2013-01-23 09:05:00,
2013-01-23 01:07:00,36.1,34.7,29.94,SSE,157,0.2,2.2,95,0.00,,,0.00,WUHU21636XXSP,2013-01-23 09:07:00,
2013-01-23 01:08:00,36.1,34.7,29.94,SSE,157,0.2,2.2,95,0.00,,,0.00,WUHU21636XXSP,2013-01-23 09:08:00,
2013-01-23 01:10:00,36.1,34.7,29.94,SSE,157,0.0,0.2,95,0.00,,,0.00,WUHU21636XXSP,2013-01-23 09:10:00,
2013-01-23 01:12:00,36.1,34.7,29.94,SSE,157,0.0,0.2,95,0.00,,,0.00,WUHU21636XXSP,2013-01-23 09:12:00,
2013-01-23 01:13:00,36.1,34.7,29.94,SSE,157,0.0,0.2,95,0.00,,,0.00,WUHU21636XXSP,2013-01-23 09:13:00,
2013-01-23 01:15:00,36.3,35.2,29.94,East,90,2.0,2.0,96,0.00,,,0.00,WUHU21636XXSP,2013-01-23 09:15:00,
2013-01-23 01:17:00,36.3,35.2,29.93,East,90,2.0,2.0,96,0.00,,,0.00,WUHU21636XXSP,2013-01-23 09:17:00,
2013-01-23 01:18:00,36.3,35.2,29.93,East,90,2.0,2.0,96,0.00,,,0.00,WUHU21636XXSP,2013-01-23 09:18:00,
2013-01-23 01:20:00,36.3,35.2,29.93,ESE,112,0.0,2.0,96,0.00,,,0.00,WUHU21636XXSP,2013-01-23 09:20:00,
2013-01-23 01:23:00,36.3,35.2,29.92,NE,45,0.0,2.0,96,0.00,,,0.00,WUHU21636XXSP,2013-01-23 09:23:00,
2013-01-23 01:25:00,36.5,35.4,29.92,NE,45,0.0,2.0,96,0.00,,,0.00,WUHU21636XXSP,2013-01-23 09:25:00,
2013-01-23 01:28:00,36.5,35.4,29.93,NE,45,0.0,0.0,96,0.00,,,0.00,WUHU21636XXSP,2013-01-23 09:28:00,
2013-01-23 01:30:00,36.5,35.4,29.92,NE,45,0.0,0.0,96,0.00,,,0.00,WUHU21636XXSP,2013-01-23 09:30:00,
2013-01-23 01:33:00,36.5,35.4,29.93,NE,45,0.0,0.0,96,0.00,,,0.00,WUHU21636XXSP,2013-01-23 09:33:00,
2013-01-23 01:35:00,36.5,35.4,29.93,NE,45,0.0,0.0,96,0.00,,,0.00,WUHU21636XXSP,2013-01-23 09:35:00,
2013-01-23 01:38:00,36.5,35.4,29.93,NE,45,0.0,0.0,96,0.00,,,0.00,WUHU21636XXSP,2013-01-23 09:38:00,
2013-01-23 01:39:00,36.5,35.4,29.93,NE,45,0.0,0.0,96,0.00,,,0.00,WUHU21636XXSP,2013-01-23 09:39:00,
2013-01-23 01:40:00,36.5,35.4,29.93,NE,45,0.0,0.0,96,0.00,,,0.00,WUHU21636XXSP,2013-01-23 09:40:00,
2013-01-23 01:41:00,36.5,35.4,29.94,NE,45,0.0,0.0,96,0.00,,,0.00,WUHU21636XXSP,2013-01-23 09:41:00,
2013-01-23 01:43:00,36.5,35.4,29.94,NE,45,0.0,0.0,96,0.00,,,0.00,WUHU21636XXSP,2013-01-23 09:43:00,
2013-01-23 01:44:00,36.5,35.4,29.94,NE,45,0.0,0.0,96,0.00,,,0.00,WUHU21636XXSP,2013-01-23 09:44:00,
2013-01-23 01:46:00,36.5,35.4,29.94,NE,45,0.0,0.0,96,0.00,,,0.00,WUHU21636XXSP,2013-01-23 09:46:00,
2013-01-23 01:48:00,36.5,35.4,29.94,NE,45,0.0,0.0,96,0.00,,,0.00,WUHU21636XXSP,2013-01-23 09:48:00,
2013-01-23 01:49:00,36.5,35.4,29.94,NE,45,0.0,0.0,96,0.00,,,0.00,WUHU21636XXSP,2013-01-23 09:49:00,
2013-01-23 01:51:00,36.7,35.6,29.95,ESE,112,0.0,0.0,96,0.00,,,0.00,WUHU21636XXSP,2013-01-23 09:51:00,
2013-01-23 01:52:00,36.7,35.6,29.95,ESE,112,0.0,0.0,96,0.00,,,0.00,WUHU21636XXSP,2013-01-23 09:52:00,
2013-01-23 01:53:00,36.5,35.4,29.95,ESE,112,0.0,0.0,96,0.00,,,0.00,WUHU21636XXSP,2013-01-23 09:53:00,
2013-01-23 01:54:00,36.5,35.4,29.96,ESE,112,0.0,0.0,96,0.00,,,0.00,WUHU21636XXSP,2013-01-23 09:54:00,
2013-01-23 01:57:00,36.5,35.4,29.94,ENE,67,0.0,0.0,96,0.00,,,0.00,WUHU21636XXSP,2013-01-23 09:57:00,
2013-01-23 01:59:00,36.5,35.4,29.93,NE,45,0.0,0.0,96,0.00,,,0.00,WUHU21636XXSP,2013-01-23 09:59:00,
2013-01-23 02:00:00,36.5,35.4,29.93,NE,45,0.0,0.0,96,0.00,,,0.00,WUHU21636XXSP,2013-01-23 10:00:00,
2013-01-23 02:02:00,36.5,35.1,29.93,East,90,0.0,0.0,95,0.00,,,0.00,WUHU21636XXSP,2013-01-23 10:02:00,
2013-01-23 02:04:00,36.3,35.2,29.94,SE,135,3.1,3.1,96,0.00,,,0.00,WUHU21636XXSP,2013-01-23 10:04:00,
2013-01-23 02:05:00,36.3,35.2,29.95,SE,135,3.1,3.1,96,0.00,,,0.00,WUHU21636XXSP,2013-01-23 10:05:00,
2013-01-23 02:07:00,36.3,35.2,29.94,SE,135,3.1,3.1,96,0.00,,,0.00,WUHU21636XXSP,2013-01-23 10:07:00,
2013-01-23 02:08:00,36.3,35.2,29.94,SE,135,3.1,3.1,96,0.00,,,0.00,WUHU21636XXSP,2013-01-23 10:08:00,
2013-01-23 02:09:00,36.3,35.2,29.94,North,0,0.0,3.1,96,0.00,,,0.00,WUHU21636XXSP,2013-01-23 10:09:00,
2013-01-23 02:10:00,36.3,35.2,29.94,North,0,0.0,3.1,96,0.00,,,0.00,WUHU21636XXSP,2013-01-23 10:10:00,
2013-01-23 02:13:00,36.3,35.2,29.94,North,0,0.0,3.1,96,0.00,,,0.00,WUHU21636XXSP,2013-01-23 10:13:00,
2013-01-23 02:14:00,36.3,35.2,29.94,North,0,0.0,3.1,96,0.00,,,0.00,WUHU21636XXSP,2013-01-23 10:14:00,
2013-01-23 02:15:00,36.3,35.2,29.94,North,0,0.0,3.1,96,0.00,,,0.00,WUHU21636XXSP,2013-01-23 10:15:00,
2013-01-23 02:18:00,36.3,35.2,29.94,North,0,0.0,0.0,96,0.00,,,0.00,WUHU21636XXSP,2013-01-23 10:18:00,
2013-01-23 02:19:00,36.3,35.2,29.94,North,0,0.0,0.0,96,0.00,,,0.00,WUHU21636XXSP,2013-01-23 10:19:00,
2013-01-23 02:20:00,36.3,35.2,29.94,North,0,0.0,0.0,96,0.00,,,0.00,WUHU21636XXSP,2013-01-23 10:20:00,
2013-01-23 02:23:00,36.3,35.2,29.95,SE,135,0.0,0.0,96,0.00,,,0.00,WUHU21636XXSP,2013-01-23 10:23:00,
2013-01-23 02:24:00,36.3,35.2,29.94,SE,135,0.0,0.0,96,0.00,,,0.00,WUHU21636XXSP,2013-01-23 10:24:00,
2013-01-23 02:25:00,36.3,35.2,29.94,SE,135,0.0,0.0,96,0.00,,,0.00,WUHU21636XXSP,2013-01-23 10:25:00,
2013-01-23 02:28:00,36.3,35.2,29.95,SE,135,0.0,0.0,96,0.00,,,0.00,WUHU21636XXSP,2013-01-23 10:28:00,
2013-01-23 02:30:00,36.3,35.2,29.96,SE,135,0.0,0.0,96,0.00,,,0.00,WUHU21636XXSP,2013-01-23 10:30:00,
2013-01-23 02:33:00,36.5,35.4,29.96,SE,135,0.0,0.0,96,0.00,,,0.00,WUHU21636XXSP,2013-01-23 10:33:00,
2013-01-23 02:35:00,36.5,35.4,29.97,SE,135,0.0,0.0,96,0.00,,,0.00,WUHU21636XXSP,2013-01-23 10:35:00,
2013-01-23 02:38:00,36.3,35.2,29.95,South,180,0.0,0.0,96,0.00,,,0.00,WUHU21636XXSP,2013-01-23 10:38:00,
2013-01-23 02:40:00,36.5,35.4,29.96,South,180,0.0,0.0,96,0.00,,,0.00,WUHU21636XXSP,2013-01-23 10:40:00,
2013-01-23 02:43:00,36.5,35.4,29.96,South,180,0.0,0.0,96,0.00,,,0.00,WUHU21636XXSP,2013-01-23 10:43:00,
2013-01-23 02:45:00,36.5,35.4,29.96,South,180,0.0,0.0,96,0.00,,,0.00,WUHU21636XXSP,2013-01-23 10:45:00,
2013-01-23 02:49:00,36.5,35.1,29.96,South,180,0.0,0.0,95,0.00,,,0.00,WUHU21636XXSP,2013-01-23 10:49:00,
2013-01-23 02:50:00,36.5,35.1,29.96,South,180,0.0,0.0,95,0.00,,,0.00,WUHU21636XXSP,2013-01-23 10:50:00,
2013-01-23 02:54:00,36.5,35.1,29.96,South,180,0.0,0.0,95,0.00,,,0.00,WUHU21636XXSP,2013-01-23 10:54:00,
2013-01-23 02:55:00,36.5,35.1,29.96,South,180,0.0,0.0,95,0.00,,,0.00,WUHU21636XXSP,2013-01-23 10:55:00,
2013-01-23 02:59:00,36.3,34.9,29.97,South,180,0.0,0.0,95,0.00,,,0.00,WUHU21636XXSP,2013-01-23 10:59:00,
2013-01-23 03:00:00,36.5,35.4,29.97,South,180,0.0,0.0,96,0.00,,,0.00,WUHU21636XXSP,2013-01-23 11:00:00,
2013-01-23 03:04:00,36.7,35.6,29.97,South,180,0.0,0.0,96,0.00,,,0.00,WUHU21636XXSP,2013-01-23 11:04:00,
2013-01-23 03:05:00,36.5,35.1,29.96,South,180,0.0,0.0,95,0.00,,,0.00,WUHU21636XXSP,2013-01-23 11:05:00,
2013-01-23 03:09:00,36.5,35.1,29.95,South,180,0.0,0.0,95,0.00,,,0.00,WUHU21636XXSP,2013-01-23 11:09:00,
2013-01-23 03:10:00,36.5,35.1,29.96,South,180,0.0,0.0,95,0.00,,,0.00,WUHU21636XXSP,2013-01-23 11:10:00,
2013-01-23 03:11:00,36.5,35.1,29.96,South,180,0.0,0.0,95,0.00,,,0.00,WUHU21636XXSP,2013-01-23 11:11:00,
2013-01-23 03:14:00,36.5,35.1,29.96,South,180,0.0,0.0,95,0.00,,,0.00,WUHU21636XXSP,2013-01-23 11:14:00,
2013-01-23 03:15:00,36.5,35.1,29.96,South,180,0.0,0.0,95,0.00,,,0.00,WUHU21636XXSP,2013-01-23 11:15:00,
2013-01-23 03:17:00,36.5,35.1,29.95,South,180,0.0,0.0,95,0.00,,,0.00,WUHU21636XXSP,2013-01-23 11:17:00,
2013-01-23 03:19:00,36.3,34.9,29.94,South,180,0.0,0.0,95,0.00,,,0.00,WUHU21636XXSP,2013-01-23 11:19:00,
2013-01-23 03:20:00,36.3,34.9,29.94,South,180,0.0,0.0,95,0.00,,,0.00,WUHU21636XXSP,2013-01-23 11:20:00,
2013-01-23 03:22:00,36.3,34.9,29.95,South,180,0.0,0.0,95,0.00,,,0.00,WUHU21636XXSP,2013-01-23 11:22:00,
2013-01-23 03:24:00,36.1,34.7,29.95,South,180,0.0,0.0,95,0.00,,,0.00,WUHU21636XXSP,2013-01-23 11:24:00,
2013-01-23 03:25:00,36.1,34.7,29.94,South,180,0.0,0.0,95,0.00,,,0.00,WUHU21636XXSP,2013-01-23 11:25:00,
2013-01-23 03:27:00,36.1,34.7,29.94,South,180,0.0,0.0,95,0.00,,,0.00,WUHU21636XXSP,2013-01-23 11:27:00,
2013-01-23 03:30:00,36.1,34.7,29.94,South,180,0.0,0.0,95,0.00,,,0.00,WUHU21636XXSP,2013-01-23 11:30:00,
2013-01-23 03:31:00,36.1,34.7,29.94,South,180,0.0,0.0,95,0.00,,,0.00,WUHU21636XXSP,2013-01-23 11:31:00,
2013-01-23 03:33:00,36.1,34.7,29.94,South,180,0.0,0.0,95,0.00,,,0.00,WUHU21636XXSP,2013-01-23 11:33:00,
2013-01-23 03:35:00,36.1,34.7,29.95,South,180,0.0,0.0,95,0.00,,,0.00,WUHU21636XXSP,2013-01-23 11:35:00,
2013-01-23 03:36:00,36.1,34.7,29.94,South,180,0.0,0.0,95,0.00,,,0.00,WUHU21636XXSP,2013-01-23 11:36:00,
2013-01-23 03:38:00,36.1,35.0,29.95,South,180,0.0,0.0,96,0.00,,,0.00,WUHU21636XXSP,2013-01-23 11:38:00,
2013-01-23 03:40:00,36.1,34.7,29.94,SSE,157,0.0,0.0,95,0.00,,,0.00,WUHU21636XXSP,2013-01-23 11:40:00,
2013-01-23 03:41:00,36.1,34.7,29.94,SSE,157,0.0,0.0,95,0.00,,,0.00,WUHU21636XXSP,2013-01-23 11:41:00,
2013-01-23 03:43:00,36.1,35.0,29.94,SSE,157,0.0,0.0,96,0.00,,,0.00,WUHU21636XXSP,2013-01-23 11:43:00,
2013-01-23 03:46:00,36.1,35.0,29.93,SSE,157,0.0,0.0,96,0.00,,,0.00,WUHU21636XXSP,2013-01-23 11:46:00,
2013-01-23 03:47:00,36.1,35.0,29.94,SSE,157,0.0,0.0,96,0.00,,,0.00,WUHU21636XXSP,2013-01-23 11:47:00,
2013-01-23 03:48:00,36.1,35.0,29.94,South,180,1.3,1.3,96,0.00,,,0.00,WUHU21636XXSP,2013-01-23 11:48:00,
2013-01-23 03:51:00,36.3,35.2,29.95,SE,135,3.3,3.3,96,0.00,,,0.00,WUHU21636XXSP,2013-01-23 11:51:00,
2013-01-23 03:52:00,36.3,35.2,29.96,SE,135,3.0,3.3,96,0.00,,,0.00,WUHU21636XXSP,2013-01-23 11:52:00,
2013-01-23 03:53:00,36.3,35.2,29.96,SE,135,2.5,3.3,96,0.00,,,0.00,WUHU21636XXSP,2013-01-23 11:53:00,
2013-01-23 03:56:00,36.1,34.7,29.96,South,180,4.6,6.9,95,0.00,,,0.00,WUHU21636XXSP,2013-01-23 11:56:00,
2013-01-23 03:57:00,36.1,34.7,29.96,South,179,2.5,6.9,95,0.00,,,0.00,WUHU21636XXSP,2013-01-23 11:57:00,
2013-01-23 03:58:00,36.1,34.7,29.95,South,169,2.8,6.9,95,0.00,,,0.00,WUHU21636XXSP,2013-01-23 11:58:00,
2013-01-23 03:59:00,36.1,34.7,29.95,SSE,157,2.2,6.9,95,0.00,,,0.00,WUHU21636XXSP,2013-01-23 11:59:00,
2013-01-23 04:02:00,36.1,35.0,29.96,SSE,157,0.0,6.9,96,0.00,,,0.00,WUHU21636XXSP,2013-01-23 12:02:00,
2013-01-23 04:03:00,36.1,35.0,29.96,SSE,157,0.0,6.9,96,0.00,,,0.00,WUHU21636XXSP,2013-01-23 12:03:00,
2013-01-23 04:04:00,36.1,35.0,29.95,SSE,157,0.0,6.9,96,0.00,,,0.00,WUHU21636XXSP,2013-01-23 12:04:00,
2013-01-23 04:07:00,36.1,35.0,29.95,SSE,157,0.0,2.2,96,0.00,,,0.00,WUHU21636XXSP,2013-01-23 12:07:00,
2013-01-23 04:08:00,36.1,35.0,29.94,SSE,157,0.0,2.2,96,0.00,,,0.00,WUHU21636XXSP,2013-01-23 12:08:00,
2013-01-23 04:09:00,36.1,35.0,29.94,SSE,157,0.0,0.0,96,0.00,,,0.00,WUHU21636XXSP,2013-01-23 12:09:00,
2013-01-23 04:12:00,36.1,35.0,29.95,SSE,157,0.0,0.0,96,0.00,,,0.00,WUHU21636XXSP,2013-01-23 12:12:00,
2013-01-23 04:13:00,36.1,35.0,29.95,SSE,157,0.0,0.0,96,0.00,,,0.00,WUHU21636XXSP,2013-01-23 12:13:00,
2013-01-23 04:14:00,36.1,35.0,29.94,SSE,157,0.0,0.0,96,0.00,,,0.00,WUHU21636XXSP,2013-01-23 12:14:00,
2013-01-23 04:17:00,36.1,35.0,29.94,SSE,157,0.0,0.0,96,0.00,,,0.00,WUHU21636XXSP,2013-01-23 12:17:00,
2013-01-23 04:18:00,36.1,35.0,29.94,SSE,157,0.0,0.0,96,0.00,,,0.00,WUHU21636XXSP,2013-01-23 12:18:00,
2013-01-23 04:20:00,36.1,35.0,29.93,SSE,157,0.0,0.0,96,0.00,,,0.00,WUHU21636XXSP,2013-01-23 12:20:00,
2013-01-23 04:22:00,36.1,35.0,29.93,SSE,157,0.0,0.0,96,0.00,,,0.00,WUHU21636XXSP,2013-01-23 12:22:00,
2013-01-23 04:23:00,36.1,35.0,29.93,SSE,157,0.0,0.0,96,0.00,,,0.00,WUHU21636XXSP,2013-01-23 12:23:00,
2013-01-23 04:25:00,36.1,35.0,29.92,SSE,157,0.0,0.0,96,0.00,,,0.00,WUHU21636XXSP,2013-01-23 12:25:00,
2013-01-23 04:27:00,36.1,35.0,29.91,SSE,157,0.0,0.0,96,0.00,,,0.00,WUHU21636XXSP,2013-01-23 12:27:00,
2013-01-23 04:28:00,36.1,35.0,29.91,SSE,157,0.0,0.0,96,0.00,,,0.00,WUHU21636XXSP,2013-01-23 12:28:00,
2013-01-23 04:29:00,36.1,35.0,29.91,SSE,157,0.0,0.0,96,0.00,,,0.00,WUHU21636XXSP,2013-01-23 12:29:00,
2013-01-23 04:30:00,36.1,35.0,29.91,NE,45,0.0,0.0,96,0.00,,,0.00,WUHU21636XXSP,2013-01-23 12:30:00,
2013-01-23 04:32:00,36.1,35.0,29.91,NNE,22,0.0,0.0,96,0.00,,,0.00,WUHU21636XXSP,2013-01-23 12:32:00,
2013-01-23 04:33:00,36.1,35.0,29.91,NNE,22,0.0,0.0,96,0.00,,,0.00,WUHU21636XXSP,2013-01-23 12:33:00,
2013-01-23 04:34:00,36.1,35.0,29.91,NNE,22,0.0,0.0,96,0.00,,,0.00,WUHU21636XXSP,2013-01-23 12:34:00,
2013-01-23 04:35:00,36.1,35.0,29.91,NNE,22,0.0,0.0,96,0.00,,,0.00,WUHU21636XXSP,2013-01-23 12:35:00,
2013-01-23 04:37:00,36.3,35.2,29.90,NNE,22,0.0,0.0,96,0.00,,,0.00,WUHU21636XXSP,2013-01-23 12:37:00,
2013-01-23 04:38:00,36.3,35.2,29.90,NNE,22,0.0,0.0,96,0.00,,,0.00,WUHU21636XXSP,2013-01-23 12:38:00,
2013-01-23 04:39:00,36.3,35.2,29.90,NNE,22,0.0,0.0,96,0.00,,,0.00,WUHU21636XXSP,2013-01-23 12:39:00,
2013-01-23 04:40:00,36.3,35.2,29.90,NNE,22,0.0,0.0,96,0.00,,,0.00,WUHU21636XXSP,2013-01-23 12:40:00,
2013-01-23 04:42:00,36.3,35.2,29.91,NE,45,0.0,0.0,96,0.00,,,0.00,WUHU21636XXSP,2013-01-23 12:42:00,
2013-01-23 04:43:00,36.3,35.2,29.90,NE,45,0.0,0.0,96,0.00,,,0.00,WUHU21636XXSP,2013-01-23 12:43:00,
2013-01-23 04:44:00,36.3,35.2,29.90,ESE,112,0.0,0.0,96,0.00,,,0.00,WUHU21636XXSP,2013-01-23 12:44:00,
2013-01-23 04:46:00,36.3,35.2,29.91,ESE,112,0.0,0.0,96,0.00,,,0.00,WUHU21636XXSP,2013-01-23 12:46:00,
2013-01-23 04:47:00,36.3,35.2,29.91,SE,135,1.3,1.3,96,0.00,,,0.00,WUHU21636XXSP,2013-01-23 12:47:00,
2013-01-23 04:48:00,36.5,35.4,29.91,SE,133,1.3,1.3,96,0.00,,,0.00,WUHU21636XXSP,2013-01-23 12:48:00,
2013-01-23 04:49:00,36.5,35.4,29.91,SE,125,1.2,1.3,96,0.00,,,0.00,WUHU21636XXSP,2013-01-23 12:49:00,
2013-01-23 04:51:00,36.3,35.2,29.91,East,90,4.9,4.9,96,0.00,,,0.00,WUHU21636XXSP,2013-01-23 12:51:00,
2013-01-23 04:52:00,36.3,35.2,29.91,East,90,4.9,4.9,96,0.00,,,0.00,WUHU21636XXSP,2013-01-23 12:52:00,
2013-01-23 04:54:00,36.3,35.2,29.91,East,99,2.3,4.9,96,0.00,,,0.00,WUHU21636XXSP,2013-01-23 12:54:00,
2013-01-23 04:56:00,36.3,35.2,29.91,NE,45,2.2,4.9,96,0.00,,,0.00,WUHU21636XXSP,2013-01-23 12:56:00,
2013-01-23 04:58:00,36.5,35.4,29.91,ENE,67,3.5,4.9,96,0.00,,,0.00,WUHU21636XXSP,2013-01-23 12:58:00,
2013-01-23 04:59:00,36.7,35.6,29.91,ENE,67,3.5,4.9,96,0.00,,,0.00,WUHU21636XXSP,2013-01-23 12:59:00,
2013-01-23 05:02:00,36.7,35.6,29.90,NE,45,2.6,4.9,96,0.00,,,0.00,WUHU21636XXSP,2013-01-23 13:02:00,
2013-01-23 05:03:00,36.7,35.6,29.90,NE,45,2.6,3.5,96,0.00,,,0.00,WUHU21636XXSP,2013-01-23 13:03:00,
2013-01-23 05:04:00,36.7,35.6,29.89,ENE,75,1.9,3.5,96,0.00,,,0.00,WUHU21636XXSP,2013-01-23 13:04:00,
2013-01-23 05:07:00,36.9,35.8,29.89,SE,135,1.3,3.5,96,0.00,,,0.00,WUHU21636XXSP,2013-01-23 13:07:00,
2013-01-23 05:08:00,37.0,35.9,29.89,NE,45,0.0,3.5,96,0.00,,,0.00,WUHU21636XXSP,2013-01-23 13:08:00,
2013-01-23 05:09:00,37.0,35.9,29.89,NE,45,0.0,2.6,96,0.00,,,0.00,WUHU21636XXSP,2013-01-23 13:09:00,
2013-01-23 05:10:00,37.0,35.9,29.89,NE,45,0.0,2.6,96,0.00,,,0.00,WUHU21636XXSP,2013-01-23 13:10:00,
2013-01-23 05:12:00,37.0,35.9,29.89,NE,45,3.6,7.1,96,0.00,,,0.00,WUHU21636XXSP,2013-01-23 13:12:00,
2013-01-23 05:13:00,37.0,35.9,29.89,NE,45,3.5,7.1,96,0.00,,,0.00,WUHU21636XXSP,2013-01-23 13:13:00,
2013-01-23 05:14:00,37.0,35.9,29.89,NE,45,3.5,7.1,96,0.00,,,0.00,WUHU21636XXSP,2013-01-23 13:14:00,
2013-01-23 05:15:00,37.0,35.9,29.89,NE,45,3.5,7.1,96,0.00,,,0.00,WUHU21636XXSP,2013-01-23 13:15:00,
2013-01-23 05:18:00,37.2,36.1,29.90,East,90,2.4,7.1,96,0.00,,,0.00,WUHU21636XXSP,2013-01-23 13:18:00,
2013-01-23 05:19:00,37.2,36.1,29.90,East,90,2.4,7.1,96,0.00,,,0.00,WUHU21636XXSP,2013-01-23 13:19:00,
2013-01-23 05:20:00,37.2,36.1,29.89,East,90,2.4,7.1,96,0.00,,,0.00,WUHU21636XXSP,2013-01-23 13:20:00,
2013-01-23 05:23:00,37.0,35.9,29.90,SSE,157,0.0,2.4,96,0.00,,,0.00,WUHU21636XXSP,2013-01-23 13:23:00,
2013-01-23 05:24:00,37.2,36.1,29.90,ENE,67,0.0,2.4,96,0.00,,,0.00,WUHU21636XXSP,2013-01-23 13:24:00,
2013-01-23 05:25:00,37.2,36.1,29.90,ENE,67,0.0,2.4,96,0.00,,,0.00,WUHU21636XXSP,2013-01-23 13:25:00,
2013-01-23 05:28:00,37.6,36.5,29.90,South,180,2.6,2.6,96,0.00,,,0.00,WUHU21636XXSP,2013-01-23 13:28:00,
2013-01-23 05:29:00,37.6,36.5,29.90,South,180,2.6,2.6,96,0.00,,,0.00,WUHU21636XXSP,2013-01-23 13:29:00,
2013-01-23 05:30:00,37.6,36.5,29.90,South,180,2.6,2.6,96,0.00,,,0.00,WUHU21636XXSP,2013-01-23 13:30:00,
2013-01-23 05:34:00,37.9,36.5,29.90,ESE,112,2.2,2.6,95,0.00,,,0.00,WUHU21636XXSP,2013-01-23 13:34:00,
2013-01-23 05:35:00,38.3,36.9,29.90,South,180,6.7,8.2,95,0.00,,,0.00,WUHU21636XXSP,2013-01-23 13:35:00,
2013-01-23 05:39:00,38.5,36.8,29.91,SSW,202,2.9,9.3,94,0.00,,,0.00,WUHU21636XXSP,2013-01-23 13:39:00,
2013-01-23 05:40:00,38.5,36.8,29.91,SSW,202,2.2,9.3,94,0.00,,,0.00,WUHU21636XXSP,2013-01-23 13:40:00,
2013-01-23 05:44:00,38.8,36.8,29.90,SSE,157,3.8,9.3,93,0.00,,,0.00,WUHU21636XXSP,2013-01-23 13:44:00,
2013-01-23 05:45:00,38.8,36.8,29.90,SSE,157,3.2,9.3,93,0.00,,,0.00,WUHU21636XXSP,2013-01-23 13:45:00,
2013-01-23 05:49:00,38.8,36.8,29.90,SSW,203,1.3,4.6,93,0.00,,,0.00,WUHU21636XXSP,2013-01-23 13:49:00,
2013-01-23 05:50:00,38.8,36.8,29.90,SSW,198,1.2,4.6,93,0.00,,,0.00,WUHU21636XXSP,2013-01-23 13:50:00,
2013-01-23 05:54:00,39.0,36.7,29.89,ESE,112,2.2,2.2,92,0.00,,,0.00,WUHU21636XXSP,2013-01-23 13:54:00,
2013-01-23 05:55:00,39.4,36.8,29.89,ESE,112,2.2,2.2,91,0.00,,,0.00,WUHU21636XXSP,2013-01-23 13:55:00,
2013-01-23 05:59:00,39.4,37.1,29.89,South,180,0.0,2.2,92,0.00,,,0.00,WUHU21636XXSP,2013-01-23 13:59:00,
2013-01-23 06:00:00,39.4,37.1,29.89,South,180,0.0,2.2,92,0.00,,,0.00,WUHU21636XXSP,2013-01-23 14:00:00,
2013-01-23 06:04:00,39.4,37.1,29.88,SE,135,2.6,2.6,92,0.00,,,0.00,WUHU21636XXSP,2013-01-23 14:04:00,
2013-01-23 06:05:00,39.4,37.1,29.88,SE,135,2.6,2.6,92,0.00,,,0.00,WUHU21636XXSP,2013-01-23 14:05:00,
2013-01-23 06:10:00,39.4,37.4,29.89,SSE,157,0.0,2.6,93,0.00,,,0.00,WUHU21636XXSP,2013-01-23 14:10:00,
2013-01-23 06:11:00,39.4,37.4,29.88,SSE,157,3.1,3.1,93,0.00,,,0.00,WUHU21636XXSP,2013-01-23 14:11:00,
2013-01-23 06:15:00,39.4,37.4,29.89,SSE,157,0.0,3.1,93,0.00,,,0.00,WUHU21636XXSP,2013-01-23 14:15:00,
2013-01-23 06:16:00,39.4,37.4,29.89,SSE,157,0.0,3.1,93,0.00,,,0.00,WUHU21636XXSP,2013-01-23 14:16:00,
2013-01-23 06:20:00,39.4,37.4,29.88,SSE,157,0.0,3.1,93,0.00,,,0.00,WUHU21636XXSP,2013-01-23 14:20:00,
2013-01-23 06:21:00,39.2,37.2,29.89,SSE,157,0.0,3.1,93,0.00,,,0.00,WUHU21636XXSP,2013-01-23 14:21:00,
2013-01-23 06:25:00,39.2,37.2,29.89,SSE,157,0.0,0.0,93,0.00,,,0.00,WUHU21636XXSP,2013-01-23 14:25:00,
2013-01-23 06:26:00,39.2,37.5,29.90,SSE,157,0.0,0.0,94,0.00,,,0.00,WUHU21636XXSP,2013-01-23 14:26:00,
2013-01-23 06:30:00,39.4,37.7,29.89,SSE,157,0.6,0.6,94,0.00,,,0.00,WUHU21636XXSP,2013-01-23 14:30:00,
2013-01-23 06:31:00,39.4,37.7,29.90,SSE,157,0.6,0.6,94,0.00,,,0.00,WUHU21636XXSP,2013-01-23 14:31:00,
2013-01-23 06:32:00,39.4,37.7,29.89,ESE,112,3.3,3.3,94,0.00,,,0.00,WUHU21636XXSP,2013-01-23 14:32:00,
2013-01-23 06:35:00,39.6,37.6,29.89,ESE,112,2.0,3.3,93,0.00,,,0.00,WUHU21636XXSP,2013-01-23 14:35:00,
2013-01-23 06:36:00,39.7,37.7,29.89,ESE,112,4.4,4.4,93,0.00,,,0.00,WUHU21636XXSP,2013-01-23 14:36:00,
2013-01-23 06:37:00,39.7,37.7,29.89,ESE,112,4.4,4.4,93,0.00,,,0.00,WUHU21636XXSP,2013-01-23 14:37:00,
2013-01-23 06:40:00,39.7,37.7,29.89,SSE,157,0.0,4.4,93,0.00,,,0.00,WUHU21636XXSP,2013-01-23 14:40:00,
2013-01-23 06:41:00,39.7,37.7,29.89,SSE,157,0.0,4.4,93,0.00,,,0.00,WUHU21636XXSP,2013-01-23 14:41:00,
2013-01-23 06:42:00,39.7,37.7,29.89,SSE,157,0.0,4.4,93,0.00,,,0.00,WUHU21636XXSP,2013-01-23 14:42:00,
2013-01-23 06:45:00,39.9,37.9,29.89,South,180,2.0,4.4,93,0.00,,,0.00,WUHU21636XXSP,2013-01-23 14:45:00,
2013-01-23 06:46:00,39.9,37.9,29.89,South,180,2.0,4.4,93,0.00,,,0.00,WUHU21636XXSP,2013-01-23 14:46:00,
2013-01-23 06:47:00,39.9,37.9,29.89,South,180,2.0,4.4,93,0.00,,,0.00,WUHU21636XXSP,2013-01-23 14:47:00,
2013-01-23 06:50:00,40.1,38.1,29.88,SSE,157,0.0,2.0,93,0.00,,,0.00,WUHU21636XXSP,2013-01-23 14:50:00,
2013-01-23 06:51:00,40.1,38.1,29.88,South,180,0.0,2.0,93,0.00,,,0.00,WUHU21636XXSP,2013-01-23 14:51:00,
2013-01-23 06:52:00,40.1,38.1,29.88,South,180,0.0,2.0,93,0.00,,,0.00,WUHU21636XXSP,2013-01-23 14:52:00,
2013-01-23 06:55:00,40.3,38.0,29.88,South,180,1.7,2.0,92,0.00,,,0.00,WUHU21636XXSP,2013-01-23 14:55:00,
2013-01-23 06:56:00,40.3,38.0,29.88,South,180,1.7,2.0,92,0.00,,,0.00,WUHU21636XXSP,2013-01-23 14:56:00,
2013-01-23 06:57:00,40.3,38.0,29.88,South,180,0.0,1.7,92,0.00,,,0.00,WUHU21636XXSP,2013-01-23 14:57:00,
2013-01-23 07:00:00,40.3,38.3,29.87,South,180,0.0,1.7,93,0.00,,,0.00,WUHU21636XXSP,2013-01-23 15:00:00,
2013-01-23 07:01:00,40.3,38.3,29.87,South,180,0.0,1.7,93,0.00,,,0.00,WUHU21636XXSP,2013-01-23 15:01:00,
2013-01-23 07:02:00,40.3,38.3,29.87,South,180,0.0,1.7,93,0.00,,,0.00,WUHU21636XXSP,2013-01-23 15:02:00,
2013-01-23 07:06:00,40.3,38.3,29.87,South,180,0.0,0.0,93,0.00,,,0.00,WUHU21636XXSP,2013-01-23 15:06:00,
2013-01-23 07:07:00,40.1,38.1,29.87,South,180,0.0,0.0,93,0.00,,,0.00,WUHU21636XXSP,2013-01-23 15:07:00,
2013-01-23 07:08:00,40.1,38.1,29.87,South,180,0.0,0.0,93,0.00,,,0.00,WUHU21636XXSP,2013-01-23 15:08:00,
2013-01-23 07:11:00,39.9,37.9,29.88,South,180,0.0,0.0,93,0.00,,,0.00,WUHU21636XXSP,2013-01-23 15:11:00,
2013-01-23 07:12:00,39.9,37.9,29.88,South,180,0.0,0.0,93,0.00,,,0.00,WUHU21636XXSP,2013-01-23 15:12:00,
2013-01-23 07:13:00,39.7,37.7,29.88,South,180,0.0,0.0,93,0.00,,,0.00,WUHU21636XXSP,2013-01-23 15:13:00,
2013-01-23 07:16:00,39.9,37.9,29.88,South,180,0.2,0.2,93,0.00,,,0.00,WUHU21636XXSP,2013-01-23 15:16:00,
2013-01-23 07:17:00,39.9,37.9,29.88,South,180,0.2,0.2,93,0.00,,,0.00,WUHU21636XXSP,2013-01-23 15:17:00,
2013-01-23 07:18:00,39.9,37.9,29.88,South,180,0.2,0.2,93,0.00,,,0.00,WUHU21636XXSP,2013-01-23 15:18:00,
2013-01-23 07:21:00,40.1,38.1,29.88,SE,135,1.3,1.3,93,0.00,,,0.00,WUHU21636XXSP,2013-01-23 15:21:00,
2013-01-23 07:22:00,40.1,38.1,29.88,SE,135,1.3,1.3,93,0.00,,,0.00,WUHU21636XXSP,2013-01-23 15:22:00,
2013-01-23 07:23:00,40.1,38.1,29.88,SE,135,1.3,1.3,93,0.00,,,0.00,WUHU21636XXSP,2013-01-23 15:23:00,
2013-01-23 07:26:00,40.3,38.3,29.88,NE,45,0.0,1.3,93,0.00,,,0.00,WUHU21636XXSP,2013-01-23 15:26:00,
2013-01-23 07:27:00,40.3,38.3,29.88,NE,45,0.0,1.3,93,0.00,,,0.00,WUHU21636XXSP,2013-01-23 15:27:00,
2013-01-23 07:28:00,40.3,38.0,29.88,ESE,112,1.1,1.3,92,0.00,,,0.00,WUHU21636XXSP,2013-01-23 15:28:00,
2013-01-23 07:31:00,40.3,38.0,29.88,ESE,112,1.1,1.3,92,0.00,,,0.00,WUHU21636XXSP,2013-01-23 15:31:00,
2013-01-23 07:32:00,40.3,38.3,29.88,SE,135,2.9,2.9,93,0.00,,,0.00,WUHU21636XXSP,2013-01-23 15:32:00,
2013-01-23 07:33:00,40.3,38.3,29.88,SE,135,2.9,2.9,93,0.00,,,0.00,WUHU21636XXSP,2013-01-23 15:33:00,
2013-01-23 07:36:00,40.3,38.0,29.88,SSE,157,0.0,2.9,92,0.00,,,0.00,WUHU21636XXSP,2013-01-23 15:36:00,
2013-01-23 07:37:00,40.3,38.0,29.88,SSE,157,0.0,2.9,92,0.00,,,0.00,WUHU21636XXSP,2013-01-23 15:37:00,
2013-01-23 07:38:00,40.3,38.0,29.88,SSE,157,0.0,2.9,92,0.00,,,0.00,WUHU21636XXSP,2013-01-23 15:38:00,
2013-01-23 07:41:00,40.3,38.0,29.88,NNE,22,0.0,2.9,92,0.00,,,0.00,WUHU21636XXSP,2013-01-23 15:41:00,
2013-01-23 07:42:00,40.3,38.0,29.88,NNE,22,0.0,2.9,92,0.00,,,0.00,WUHU21636XXSP,2013-01-23 15:42:00,
2013-01-23 07:43:00,40.3,38.0,29.88,ESE,112,0.0,2.9,92,0.00,,,0.00,WUHU21636XXSP,2013-01-23 15:43:00,
2013-01-23 07:46:00,40.3,37.7,29.88,South,180,0.0,0.0,91,0.00,,,0.00,WUHU21636XXSP,2013-01-23 15:46:00,
2013-01-23 07:47:00,40.6,38.0,29.88,SSE,157,2.9,2.9,91,0.00,,,0.00,WUHU21636XXSP,2013-01-23 15:47:00,
2013-01-23 07:48:00,40.6,38.0,29.88,SSE,157,2.9,2.9,91,0.00,,,0.00,WUHU21636XXSP,2013-01-23 15:48:00,
2013-01-23 07:52:00,40.8,37.9,29.88,SE,135,4.9,4.9,90,0.00,,,0.00,WUHU21636XXSP,2013-01-23 15:52:00,
2013-01-23 07:53:00,40.8,37.9,29.88,SE,135,4.9,4.9,90,0.00,,,0.00,WUHU21636XXSP,2013-01-23 15:53:00,
2013-01-23 07:54:00,41.2,38.3,29.88,SE,136,4.9,6.4,90,0.00,,,0.00,WUHU21636XXSP,2013-01-23 15:54:00,
2013-01-23 07:57:00,41.2,38.0,29.88,East,90,4.0,6.4,89,0.00,,,0.00,WUHU21636XXSP,2013-01-23 15:57:00,
2013-01-23 07:58:00,41.2,38.0,29.88,East,95,3.8,6.4,89,0.00,,,0.00,WUHU21636XXSP,2013-01-23 15:58:00,
2013-01-23 07:59:00,41.2,38.0,29.88,ESE,116,3.3,6.4,89,0.00,,,0.00,WUHU21636XXSP,2013-01-23 15:59:00,
2013-01-23 08:02:00,41.2,38.0,29.88,SSE,149,1.8,6.4,89,0.00,,,0.00,WUHU21636XXSP,2013-01-23 16:02:00,
2013-01-23 08:03:00,41.2,38.0,29.88,South,180,2.0,5.3,89,0.00,,,0.00,WUHU21636XXSP,2013-01-23 16:03:00,
2013-01-23 08:04:00,41.2,38.0,29.88,South,180,2.0,4.0,89,0.00,,,0.00,WUHU21636XXSP,2013-01-23 16:04:00,
2013-01-23 08:07:00,41.2,38.0,29.88,South,180,2.9,4.0,89,0.00,,,0.00,WUHU21636XXSP,2013-01-23 16:07:00,
2013-01-23 08:08:00,41.2,38.0,29.88,South,180,2.9,2.9,89,0.00,,,0.00,WUHU21636XXSP,2013-01-23 16:08:00,
2013-01-23 08:09:00,41.4,37.9,29.88,SSE,157,3.3,3.3,88,0.00,,,0.00,WUHU21636XXSP,2013-01-23 16:09:00,
2013-01-23 08:12:00,41.4,37.9,29.88,SSW,202,4.6,4.6,88,0.00,,,0.00,WUHU21636XXSP,2013-01-23 16:12:00,
2013-01-23 08:13:00,41.4,37.9,29.88,SSW,202,4.6,4.6,88,0.00,,,0.00,WUHU21636XXSP,2013-01-23 16:13:00,
2013-01-23 08:14:00,41.4,37.9,29.88,SSW,202,4.6,4.6,88,0.00,,,0.00,WUHU21636XXSP,2013-01-23 16:14:00,
2013-01-23 08:17:00,41.5,38.0,29.88,SSE,157,3.5,4.6,88,0.00,,,0.00,WUHU21636XXSP,2013-01-23 16:17:00,
2013-01-23 08:18:00,41.5,38.0,29.88,SSE,157,3.5,4.6,88,0.00,,,0.00,WUHU21636XXSP,2013-01-23 16:18:00,
2013-01-23 08:19:00,41.5,38.0,29.88,SSE,157,3.5,4.6,88,0.00,,,0.00,WUHU21636XXSP,2013-01-23 16:19:00,
2013-01-23 08:22:00,41.4,37.9,29.88,SSE,157,2.9,4.6,88,0.00,,,0.00,WUHU21636XXSP,2013-01-23 16:22:00,
2013-01-23 08:23:00,41.4,37.9,29.88,SSE,157,2.9,4.6,88,0.00,,,0.00,WUHU21636XXSP,2013-01-23 16:23:00,
2013-01-23 08:24:00,41.5,38.0,29.88,South,171,2.7,3.5,88,0.00,,,0.00,WUHU21636XXSP,2013-01-23 16:24:00,
2013-01-23 08:28:00,41.5,38.0,29.88,SSW,202,2.4,3.5,88,0.00,,,0.00,WUHU21636XXSP,2013-01-23 16:28:00,
2013-01-23 08:29:00,41.4,37.9,29.88,South,180,1.3,2.9,88,0.00,,,0.00,WUHU21636XXSP,2013-01-23 16:29:00,
2013-01-23 08:33:00,41.5,38.3,29.88,SSW,202,1.3,2.9,89,0.00,,,0.00,WUHU21636XXSP,2013-01-23 16:33:00,
2013-01-23 08:35:00,41.5,38.3,29.88,South,180,0.0,2.4,89,0.00,,,0.00,WUHU21636XXSP,2013-01-23 16:35:00,
2013-01-23 08:38:00,41.5,38.3,29.88,South,180,0.0,1.3,89,0.00,,,0.00,WUHU21636XXSP,2013-01-23 16:38:00,
2013-01-23 08:39:00,41.5,38.3,29.88,South,180,0.0,1.3,89,0.00,,,0.00,WUHU21636XXSP,2013-01-23 16:39:00,
2013-01-23 08:40:00,41.4,38.2,29.88,South,180,0.0,1.3,89,0.00,,,0.00,WUHU21636XXSP,2013-01-23 16:40:00,
2013-01-23 08:43:00,41.4,38.5,29.88,South,180,0.0,0.0,90,0.00,,,0.00,WUHU21636XXSP,2013-01-23 16:43:00,
2013-01-23 08:44:00,41.4,38.5,29.88,SE,135,0.0,0.0,90,0.00,,,0.00,WUHU21636XXSP,2013-01-23 16:44:00,
2013-01-23 08:45:00,41.4,38.5,29.88,SE,135,0.0,0.0,90,0.00,,,0.00,WUHU21636XXSP,2013-01-23 16:45:00,
2013-01-23 08:48:00,41.2,38.6,29.88,SE,135,0.0,0.0,91,0.00,,,0.00,WUHU21636XXSP,2013-01-23 16:48:00,
2013-01-23 08:49:00,41.2,38.6,29.88,SE,135,0.0,0.0,91,0.00,,,0.00,WUHU21636XXSP,2013-01-23 16:49:00,
2013-01-23 08:50:00,41.2,38.6,29.88,SE,135,0.0,0.0,91,0.00,,,0.00,WUHU21636XXSP,2013-01-23 16:50:00,
2013-01-23 08:53:00,41.2,38.9,29.88,SE,135,0.0,0.0,92,0.00,,,0.00,WUHU21636XXSP,2013-01-23 16:53:00,
2013-01-23 08:54:00,41.2,38.9,29.88,SE,135,0.0,0.0,92,0.00,,,0.00,WUHU21636XXSP,2013-01-23 16:54:00,
2013-01-23 08:55:00,41.2,38.9,29.88,SE,135,0.0,0.0,92,0.00,,,0.00,WUHU21636XXSP,2013-01-23 16:55:00,
2013-01-23 08:58:00,40.8,38.5,29.88,SE,135,0.0,0.0,92,0.00,,,0.00,WUHU21636XXSP,2013-01-23 16:58:00,
2013-01-23 08:59:00,40.8,38.5,29.88,SE,135,0.0,0.0,92,0.00,,,0.00,WUHU21636XXSP,2013-01-23 16:59:00,
2013-01-23 09:00:00,40.8,38.5,29.88,SE,135,0.0,0.0,92,0.00,,,0.00,WUHU21636XXSP,2013-01-23 17:00:00,
2013-01-23 09:03:00,40.8,38.5,29.88,SSW,202,0.2,0.2,92,0.02,,,0.02,WUHU21636XXSP,2013-01-23 17:03:00,
2013-01-23 09:04:00,40.8,38.5,29.88,SSW,202,0.2,0.2,92,0.02,,,0.02,WUHU21636XXSP,2013-01-23 17:04:00,
2013-01-23 09:05:00,40.6,38.6,29.88,SSW,202,0.2,0.2,93,0.02,,,0.02,WUHU21636XXSP,2013-01-23 17:05:00,
2013-01-23 09:08:00,40.6,38.6,29.89,South,180,0.0,0.2,93,0.02,,,0.02,WUHU21636XXSP,2013-01-23 17:08:00,
2013-01-23 09:09:00,40.5,38.5,29.88,South,180,0.0,0.2,93,0.02,,,0.02,WUHU21636XXSP,2013-01-23 17:09:00,
2013-01-23 09:10:00,40.5,38.5,29.89,South,180,0.0,0.2,93,0.02,,,0.02,WUHU21636XXSP,2013-01-23 17:10:00,
2013-01-23 09:13:00,40.5,38.5,29.89,SSW,202,0.0,0.2,93,0.02,,,0.02,WUHU21636XXSP,2013-01-23 17:13:00,
2013-01-23 09:14:00,40.3,38.3,29.89,SSW,202,0.0,0.2,93,0.02,,,0.02,WUHU21636XXSP,2013-01-23 17:14:00,
2013-01-23 09:15:00,40.3,38.3,29.89,SSW,202,0.0,0.0,93,0.02,,,0.02,WUHU21636XXSP,2013-01-23 17:15:00,
2013-01-23 09:18:00,40.3,38.6,29.88,SSW,202,0.0,0.0,94,0.02,,,0.02,WUHU21636XXSP,2013-01-23 17:18:00,
2013-01-23 09:20:00,40.3,38.6,29.88,SSW,202,0.0,0.0,94,0.02,,,0.02,WUHU21636XXSP,2013-01-23 17:20:00,
2013-01-23 09:21:00,40.3,38.6,29.89,SSW,202,0.0,0.0,94,0.02,,,0.02,WUHU21636XXSP,2013-01-23 17:21:00,
2013-01-23 09:23:00,40.3,38.6,29.89,SSW,202,0.0,0.0,94,0.04,,,0.04,WUHU21636XXSP,2013-01-23 17:23:00,
2013-01-23 09:25:00,40.3,38.9,29.89,SSW,202,0.0,0.0,95,0.04,,,0.04,WUHU21636XXSP,2013-01-23 17:25:00,
2013-01-23 09:26:00,40.3,38.9,29.88,SSW,202,0.0,0.0,95,0.04,,,0.04,WUHU21636XXSP,2013-01-23 17:26:00,
2013-01-23 09:29:00,40.3,38.9,29.88,SSW,202,0.0,0.0,95,0.04,,,0.04,WUHU21636XXSP,2013-01-23 17:29:00,
2013-01-23 09:30:00,40.3,38.9,29.89,SSW,202,0.0,0.0,95,0.04,,,0.04,WUHU21636XXSP,2013-01-23 17:30:00,
2013-01-23 09:31:00,40.3,38.9,29.89,SSW,202,0.0,0.0,95,0.04,,,0.04,WUHU21636XXSP,2013-01-23 17:31:00,
2013-01-23 09:34:00,40.3,38.9,29.89,SSW,202,0.0,0.0,95,0.04,,,0.04,WUHU21636XXSP,2013-01-23 17:34:00,
2013-01-23 09:35:00,40.3,38.9,29.89,SSW,202,0.0,0.0,95,0.04,,,0.04,WUHU21636XXSP,2013-01-23 17:35:00,
2013-01-23 09:36:00,40.3,38.9,29.89,SSW,202,0.0,0.0,95,0.04,,,0.04,WUHU21636XXSP,2013-01-23 17:36:00,
2013-01-23 09:39:00,40.1,38.7,29.89,SSW,202,0.0,0.0,95,0.04,,,0.04,WUHU21636XXSP,2013-01-23 17:39:00,
2013-01-23 09:40:00,40.1,39.0,29.89,SSW,202,0.0,0.0,96,0.04,,,0.04,WUHU21636XXSP,2013-01-23 17:40:00,
2013-01-23 09:41:00,40.1,39.0,29.89,SSW,202,0.0,0.0,96,0.04,,,0.04,WUHU21636XXSP,2013-01-23 17:41:00,
2013-01-23 09:44:00,40.1,39.0,29.88,SE,135,0.0,0.0,96,0.06,,,0.06,WUHU21636XXSP,2013-01-23 17:44:00,
2013-01-23 09:45:00,40.1,39.0,29.88,SE,135,0.0,0.0,96,0.06,,,0.06,WUHU21636XXSP,2013-01-23 17:45:00,
2013-01-23 09:46:00,40.1,39.0,29.88,SE,135,0.0,0.0,96,0.06,,,0.06,WUHU21636XXSP,2013-01-23 17:46:00,
2013-01-23 09:49:00,40.1,39.0,29.88,SE,135,0.0,0.0,96,0.06,,,0.06,WUHU21636XXSP,2013-01-23 17:49:00,
2013-01-23 09:50:00,40.1,39.0,29.88,SE,135,0.0,0.0,96,0.06,,,0.06,WUHU21636XXSP,2013-01-23 17:50:00,
2013-01-23 09:52:00,40.1,39.0,29.88,SE,135,0.0,0.0,96,0.06,,,0.06,WUHU21636XXSP,2013-01-23 17:52:00,
2013-01-23 09:55:00,39.9,38.8,29.88,SE,135,0.0,0.0,96,0.06,,,0.06,WUHU21636XXSP,2013-01-23 17:55:00,
2013-01-23 09:57:00,39.9,38.8,29.88,SSE,157,0.0,0.0,96,0.06,,,0.06,WUHU21636XXSP,2013-01-23 17:57:00,
2013-01-23 10:00:00,39.9,39.0,29.88,SSE,157,0.0,0.0,97,0.06,,,0.06,WUHU21636XXSP,2013-01-23 18:00:00,
2013-01-23 10:02:00,39.9,39.0,29.88,SSE,157,0.0,0.0,97,0.04,,,0.06,WUHU21636XXSP,2013-01-23 18:02:00,
2013-01-23 10:05:00,39.9,39.0,29.88,SSE,157,0.0,0.0,97,0.04,,,0.06,WUHU21636XXSP,2013-01-23 18:05:00,
2013-01-23 10:07:00,39.9,39.0,29.88,SSE,157,0.0,0.0,97,0.06,,,0.08,WUHU21636XXSP,2013-01-23 18:07:00,
2013-01-23 10:10:00,40.1,39.2,29.88,SSE,157,0.0,0.0,97,0.06,,,0.08,WUHU21636XXSP,2013-01-23 18:10:00,
2013-01-23 10:11:00,40.1,39.2,29.88,SSE,157,0.0,0.0,97,0.06,,,0.08,WUHU21636XXSP,2013-01-23 18:11:00,
2013-01-23 10:12:00,40.1,39.2,29.88,SSE,157,0.0,0.0,97,0.06,,,0.08,WUHU21636XXSP,2013-01-23 18:12:00,
2013-01-23 10:15:00,40.1,39.2,29.88,SSE,157,0.0,0.0,97,0.06,,,0.08,WUHU21636XXSP,2013-01-23 18:15:00,
2013-01-23 10:16:00,40.1,39.2,29.88,SSE,157,0.0,0.0,97,0.06,,,0.08,WUHU21636XXSP,2013-01-23 18:16:00,
2013-01-23 10:17:00,40.1,39.2,29.88,SSE,157,0.0,0.0,97,0.06,,,0.08,WUHU21636XXSP,2013-01-23 18:17:00,
2013-01-23 10:20:00,40.3,39.4,29.88,SSE,157,0.0,0.0,97,0.06,,,0.08,WUHU21636XXSP,2013-01-23 18:20:00,
2013-01-23 10:21:00,40.3,39.4,29.88,SSE,157,0.0,0.0,97,0.06,,,0.08,WUHU21636XXSP,2013-01-23 18:21:00,
2013-01-23 10:22:00,40.3,39.4,29.88,SSE,157,0.0,0.0,97,0.04,,,0.08,WUHU21636XXSP,2013-01-23 18:22:00,
2013-01-23 10:25:00,40.3,39.4,29.88,SSE,157,0.0,0.0,97,0.04,,,0.08,WUHU21636XXSP,2013-01-23 18:25:00,
2013-01-23 10:26:00,40.3,39.4,29.88,SSE,157,0.0,0.0,97,0.04,,,0.08,WUHU21636XXSP,2013-01-23 18:26:00,
2013-01-23 10:28:00,40.3,39.4,29.88,SSE,157,0.0,0.0,97,0.04,,,0.08,WUHU21636XXSP,2013-01-23 18:28:00,
2013-01-23 10:30:00,40.6,39.7,29.88,SSE,157,0.0,0.0,97,0.04,,,0.08,WUHU21636XXSP,2013-01-23 18:30:00,
2013-01-23 10:31:00,40.6,39.7,29.88,SSE,157,0.0,0.0,97,0.04,,,0.08,WUHU21636XXSP,2013-01-23 18:31:00,
2013-01-23 10:32:00,40.6,39.7,29.88,SSE,157,0.0,0.0,97,0.04,,,0.08,WUHU21636XXSP,2013-01-23 18:32:00,
2013-01-23 10:33:00,40.6,39.7,29.88,SSE,157,0.0,0.0,97,0.04,,,0.08,WUHU21636XXSP,2013-01-23 18:33:00,
2013-01-23 10:35:00,40.6,39.7,29.88,SSE,157,0.0,0.0,97,0.04,,,0.08,WUHU21636XXSP,2013-01-23 18:35:00,
2013-01-23 10:37:00,40.8,39.9,29.89,SSE,157,0.0,0.0,97,0.04,,,0.08,WUHU21636XXSP,2013-01-23 18:37:00,
2013-01-23 10:38:00,40.8,39.9,29.88,SSE,157,0.0,0.0,97,0.04,,,0.08,WUHU21636XXSP,2013-01-23 18:38:00,
2013-01-23 10:40:00,40.8,39.9,29.88,SSE,157,0.0,0.0,97,0.04,,,0.08,WUHU21636XXSP,2013-01-23 18:40:00,
2013-01-23 10:42:00,40.8,39.9,29.89,SSE,157,0.0,0.0,97,0.04,,,0.08,WUHU21636XXSP,2013-01-23 18:42:00,
2013-01-23 10:43:00,40.8,39.9,29.88,SSE,157,0.0,0.0,97,0.04,,,0.08,WUHU21636XXSP,2013-01-23 18:43:00,
2013-01-23 10:45:00,40.8,39.9,29.89,SE,135,0.0,0.0,97,0.02,,,0.08,WUHU21636XXSP,2013-01-23 18:45:00,
2013-01-23 10:47:00,41.0,40.1,29.88,SE,135,2.9,2.9,97,0.02,,,0.08,WUHU21636XXSP,2013-01-23 18:47:00,
2013-01-23 10:48:00,40.8,39.9,29.88,SE,135,2.9,2.9,97,0.04,,,0.10,WUHU21636XXSP,2013-01-23 18:48:00,
2013-01-23 10:50:00,40.8,39.9,29.88,SSE,157,0.0,2.9,97,0.04,,,0.10,WUHU21636XXSP,2013-01-23 18:50:00,
2013-01-23 10:52:00,40.8,39.9,29.88,SE,135,0.0,2.9,97,0.04,,,0.10,WUHU21636XXSP,2013-01-23 18:52:00,
2013-01-23 10:54:00,41.0,40.1,29.88,SSE,157,3.3,3.3,97,0.04,,,0.10,WUHU21636XXSP,2013-01-23 18:54:00,
2013-01-23 10:55:00,41.2,40.3,29.89,SSE,157,3.0,3.3,97,0.04,,,0.10,WUHU21636XXSP,2013-01-23 18:55:00,
2013-01-23 10:57:00,40.8,39.9,29.88,SSE,157,2.3,3.3,97,0.04,,,0.10,WUHU21636XXSP,2013-01-23 18:57:00,
2013-01-23 10:59:00,40.8,39.9,29.88,SSE,157,2.0,3.3,97,0.04,,,0.10,WUHU21636XXSP,2013-01-23 18:59:00,
2013-01-23 11:01:00,40.8,39.9,29.88,SSE,157,2.0,3.3,97,0.04,,,0.10,WUHU21636XXSP,2013-01-23 19:01:00,
2013-01-23 11:02:00,40.8,39.9,29.89,South,180,1.5,3.3,97,0.04,,,0.10,WUHU21636XXSP,2013-01-23 19:02:00,
2013-01-23 11:03:00,40.8,39.9,29.89,South,180,1.5,3.3,97,0.04,,,0.10,WUHU21636XXSP,2013-01-23 19:03:00,
2013-01-23 11:04:00,40.8,39.9,29.89,SSE,157,3.8,3.8,97,0.04,,,0.10,WUHU21636XXSP,2013-01-23 19:04:00,
2013-01-23 11:06:00,40.8,39.9,29.88,SSE,157,3.8,3.8,97,0.02,,,0.10,WUHU21636XXSP,2013-01-23 19:06:00,
2013-01-23 11:07:00,40.8,39.9,29.88,SSE,157,3.8,3.8,97,0.02,,,0.10,WUHU21636XXSP,2013-01-23 19:07:00,
2013-01-23 11:08:00,40.8,39.9,29.88,SSE,157,0.0,3.8,97,0.02,,,0.10,WUHU21636XXSP,2013-01-23 19:08:00,
2013-01-23 11:10:00,41.0,40.1,29.89,SW,225,0.0,3.8,97,0.02,,,0.10,WUHU21636XXSP,2013-01-23 19:10:00,
2013-01-23 11:11:00,41.0,40.1,29.89,SW,225,0.0,3.8,97,0.02,,,0.10,WUHU21636XXSP,2013-01-23 19:11:00,
2013-01-23 11:12:00,40.8,39.9,29.89,South,180,0.0,3.8,97,0.02,,,0.10,WUHU21636XXSP,2013-01-23 19:12:00,
2013-01-23 11:13:00,40.8,39.9,29.89,South,180,0.0,3.8,97,0.02,,,0.10,WUHU21636XXSP,2013-01-23 19:13:00,
2013-01-23 11:15:00,41.2,40.3,29.89,SW,225,4.4,4.4,97,0.02,,,0.10,WUHU21636XXSP,2013-01-23 19:15:00,
2013-01-23 11:16:00,41.2,40.3,29.89,SW,225,4.4,4.4,97,0.02,,,0.10,WUHU21636XXSP,2013-01-23 19:16:00,
2013-01-23 11:18:00,41.2,40.3,29.89,SSW,206,2.8,4.4,97,0.02,,,0.10,WUHU21636XXSP,2013-01-23 19:18:00,
2013-01-23 11:20:00,41.2,40.3,29.89,SSW,202,2.6,4.4,97,0.02,,,0.10,WUHU21636XXSP,2013-01-23 19:20:00,
2013-01-23 11:21:00,41.2,40.3,29.89,South,180,0.8,4.4,97,0.04,,,0.12,WUHU21636XXSP,2013-01-23 19:21:00,
2013-01-23 11:23:00,41.2,40.3,29.89,South,180,0.8,4.4,97,0.04,,,0.12,WUHU21636XXSP,2013-01-23 19:23:00,
2013-01-23 11:25:00,41.2,40.3,29.89,South,180,2.2,4.4,97,0.04,,,0.12,WUHU21636XXSP,2013-01-23 19:25:00,
2013-01-23 11:26:00,41.2,40.3,29.89,South,180,2.2,4.4,97,0.04,,,0.12,WUHU21636XXSP,2013-01-23 19:26:00,
2013-01-23 11:28:00,41.2,40.3,29.89,SSE,156,3.0,6.2,97,0.04,,,0.12,WUHU21636XXSP,2013-01-23 19:28:00,
2013-01-23 11:29:00,41.2,40.3,29.88,SSE,147,3.1,6.2,97,0.04,,,0.12,WUHU21636XXSP,2013-01-23 19:29:00,
2013-01-23 11:30:00,41.2,40.3,29.88,SE,135,2.4,6.2,97,0.04,,,0.12,WUHU21636XXSP,2013-01-23 19:30:00,
2013-01-23 11:31:00,41.2,40.3,29.88,SE,135,2.4,6.2,97,0.04,,,0.12,WUHU21636XXSP,2013-01-23 19:31:00,
2013-01-23 11:33:00,41.2,40.3,29.88,SSE,157,4.9,6.2,97,0.04,,,0.12,WUHU21636XXSP,2013-01-23 19:33:00,
2013-01-23 11:34:00,41.2,40.3,29.88,SSE,157,4.9,6.2,97,0.04,,,0.12,WUHU21636XXSP,2013-01-23 19:34:00,
2013-01-23 11:36:00,41.2,40.3,29.88,South,172,3.9,7.8,97,0.04,,,0.12,WUHU21636XXSP,2013-01-23 19:36:00,
2013-01-23 11:38:00,41.2,40.3,29.88,SSW,202,2.0,7.8,97,0.04,,,0.12,WUHU21636XXSP,2013-01-23 19:38:00,
2013-01-23 11:39:00,41.2,40.3,29.88,SSW,202,2.0,7.8,97,0.04,,,0.12,WUHU21636XXSP,2013-01-23 19:39:00,
2013-01-23 11:41:00,41.2,40.3,29.88,South,180,2.6,7.8,97,0.06,,,0.14,WUHU21636XXSP,2013-01-23 19:41:00,
2013-01-23 11:43:00,40.8,39.9,29.88,ESE,112,3.3,7.8,97,0.06,,,0.14,WUHU21636XXSP,2013-01-23 19:43:00,
2013-01-23 11:44:00,40.8,39.9,29.88,ESE,112,3.3,7.8,97,0.06,,,0.14,WUHU21636XXSP,2013-01-23 19:44:00,
2013-01-23 11:46:00,40.8,39.9,29.88,South,180,4.0,4.0,97,0.06,,,0.14,WUHU21636XXSP,2013-01-23 19:46:00,
2013-01-23 11:49:00,40.8,39.9,29.88,South,180,3.3,4.0,97,0.04,,,0.14,WUHU21636XXSP,2013-01-23 19:49:00,
2013-01-23 11:51:00,40.8,39.9,29.88,South,180,2.5,4.0,97,0.04,,,0.14,WUHU21636XXSP,2013-01-23 19:51:00,
2013-01-23 11:54:00,40.8,39.9,29.88,SSE,157,6.2,6.9,97,0.04,,,0.14,WUHU21636XXSP,2013-01-23 19:54:00,
2013-01-23 11:56:00,40.8,39.9,29.88,South,180,2.9,7.6,97,0.04,,,0.14,WUHU21636XXSP,2013-01-23 19:56:00,
2013-01-23 11:59:00,40.8,39.9,29.87,SSW,202,3.1,7.6,97,0.04,,,0.14,WUHU21636XXSP,2013-01-23 19:59:00,
2013-01-23 12:01:00,40.8,39.9,29.87,SSE,157,7.1,7.6,97,0.04,,,0.14,WUHU21636XXSP,2013-01-23 20:01:00,
2013-01-23 12:02:00,40.8,39.9,29.87,SSE,157,7.1,7.6,97,0.04,,,0.14,WUHU21636XXSP,2013-01-23 20:02:00,
2013-01-23 12:04:00,40.6,39.7,29.87,SSW,203,1.2,7.6,97,0.04,,,0.14,WUHU21636XXSP,2013-01-23 20:04:00,
2013-01-23 12:07:00,40.6,39.7,29.87,SSE,167,3.2,8.2,97,0.04,,,0.14,WUHU21636XXSP,2013-01-23 20:07:00,
2013-01-23 12:09:00,40.6,39.7,29.87,SSE,157,4.6,8.2,97,0.04,,,0.14,WUHU21636XXSP,2013-01-23 20:09:00,
2013-01-23 12:12:00,40.6,39.7,29.87,SSW,192,2.3,8.2,97,0.04,,,0.14,WUHU21636XXSP,2013-01-23 20:12:00,
2013-01-23 12:14:00,40.6,39.7,29.86,South,180,0.4,8.2,97,0.06,,,0.16,WUHU21636XXSP,2013-01-23 20:14:00,
2013-01-23 12:15:00,40.6,39.7,29.86,South,180,2.0,6.7,97,0.06,,,0.16,WUHU21636XXSP,2013-01-23 20:15:00,
2013-01-23 12:17:00,40.5,39.6,29.87,South,180,2.0,4.6,97,0.06,,,0.16,WUHU21636XXSP,2013-01-23 20:17:00,
2013-01-23 12:19:00,40.3,39.4,29.86,SSE,157,0.0,4.6,97,0.06,,,0.16,WUHU21636XXSP,2013-01-23 20:19:00,
2013-01-23 12:20:00,40.3,39.4,29.86,SSE,157,0.0,4.6,97,0.06,,,0.16,WUHU21636XXSP,2013-01-23 20:20:00,
2013-01-23 12:22:00,40.3,39.4,29.86,SE,135,0.0,2.0,97,0.04,,,0.16,WUHU21636XXSP,2013-01-23 20:22:00,
2013-01-23 12:24:00,40.5,39.6,29.86,WSW,247,0.6,2.0,97,0.06,,,0.18,WUHU21636XXSP,2013-01-23 20:24:00,
2013-01-23 12:25:00,40.5,39.6,29.86,WSW,247,0.6,2.0,97,0.06,,,0.18,WUHU21636XXSP,2013-01-23 20:25:00,
2013-01-23 12:27:00,40.3,39.4,29.86,WSW,247,0.6,0.6,97,0.06,,,0.18,WUHU21636XXSP,2013-01-23 20:27:00,
2013-01-23 12:29:00,40.5,39.6,29.86,SSE,157,0.0,0.6,97,0.06,,,0.18,WUHU21636XXSP,2013-01-23 20:29:00,
2013-01-23 12:30:00,40.6,39.7,29.86,SSE,157,0.0,0.6,97,0.06,,,0.18,WUHU21636XXSP,2013-01-23 20:30:00,
2013-01-23 12:32:00,40.6,39.7,29.86,SSE,157,3.1,3.1,97,0.06,,,0.18,WUHU21636XXSP,2013-01-23 20:32:00,
2013-01-23 12:35:00,40.5,39.6,29.86,SSE,157,3.1,3.1,97,0.06,,,0.18,WUHU21636XXSP,2013-01-23 20:35:00,
2013-01-23 12:37:00,40.3,39.4,29.86,SE,135,5.5,5.5,97,0.06,,,0.18,WUHU21636XXSP,2013-01-23 20:37:00,
2013-01-23 12:40:00,40.3,39.4,29.86,SE,135,5.5,5.5,97,0.04,,,0.18,WUHU21636XXSP,2013-01-23 20:40:00,
2013-01-23 12:42:00,40.3,39.4,29.86,SSW,202,0.0,5.5,97,0.04,,,0.18,WUHU21636XXSP,2013-01-23 20:42:00,
2013-01-23 12:45:00,40.3,39.4,29.86,SSW,202,0.0,5.5,97,0.04,,,0.18,WUHU21636XXSP,2013-01-23 20:45:00,
2013-01-23 12:46:00,40.3,39.4,29.86,SSW,202,0.0,5.5,97,0.04,,,0.18,WUHU21636XXSP,2013-01-23 20:46:00,
2013-01-23 12:47:00,40.3,39.4,29.86,SSW,202,0.0,5.5,97,0.04,,,0.18,WUHU21636XXSP,2013-01-23 20:47:00,
2013-01-23 12:48:00,40.3,39.4,29.86,SSW,202,0.0,0.0,97,0.04,,,0.18,WUHU21636XXSP,2013-01-23 20:48:00,
2013-01-23 12:50:00,40.3,39.4,29.86,SSW,202,0.0,0.0,97,0.04,,,0.18,WUHU21636XXSP,2013-01-23 20:50:00,
2013-01-23 12:51:00,40.3,39.4,29.86,SSW,202,0.0,0.0,97,0.04,,,0.18,WUHU21636XXSP,2013-01-23 20:51:00,
2013-01-23 12:53:00,40.3,39.4,29.86,SSW,202,0.0,0.0,97,0.04,,,0.18,WUHU21636XXSP,2013-01-23 20:53:00,
2013-01-23 12:55:00,40.3,39.4,29.86,SSW,202,0.0,0.0,97,0.04,,,0.18,WUHU21636XXSP,2013-01-23 20:55:00,
2013-01-23 12:56:00,40.3,39.4,29.86,SSE,157,0.0,0.0,97,0.04,,,0.18,WUHU21636XXSP,2013-01-23 20:56:00,
2013-01-23 12:58:00,40.1,39.2,29.86,SE,135,0.0,0.0,97,0.04,,,0.18,WUHU21636XXSP,2013-01-23 20:58:00,
2013-01-23 13:00:00,40.1,39.2,29.86,ESE,112,0.0,0.0,97,0.04,,,0.18,WUHU21636XXSP,2013-01-23 21:00:00,
2013-01-23 13:01:00,40.1,39.2,29.86,ESE,112,0.0,0.0,97,0.04,,,0.18,WUHU21636XXSP,2013-01-23 21:01:00,
2013-01-23 13:03:00,40.1,39.2,29.86,SSW,202,0.0,0.0,97,0.04,,,0.18,WUHU21636XXSP,2013-01-23 21:03:00,
2013-01-23 13:05:00,39.9,39.0,29.86,SSE,157,1.1,1.1,97,0.04,,,0.18,WUHU21636XXSP,2013-01-23 21:05:00,
2013-01-23 13:06:00,39.9,39.0,29.86,SSE,157,1.1,1.1,97,0.04,,,0.18,WUHU21636XXSP,2013-01-23 21:06:00,
2013-01-23 13:08:00,39.9,39.0,29.85,SSE,157,1.1,1.1,97,0.06,,,0.20,WUHU21636XXSP,2013-01-23 21:08:00,
2013-01-23 13:09:00,39.9,39.0,29.85,WSW,247,1.1,1.1,97,0.06,,,0.20,WUHU21636XXSP,2013-01-23 21:09:00,
2013-01-23 13:10:00,39.9,39.0,29.85,WSW,247,1.1,1.1,97,0.06,,,0.20,WUHU21636XXSP,2013-01-23 21:10:00,
2013-01-23 13:11:00,39.9,39.0,29.85,WSW,247,1.1,1.1,97,0.06,,,0.20,WUHU21636XXSP,2013-01-23 21:11:00,
2013-01-23 13:13:00,39.9,39.0,29.86,SE,135,0.0,1.1,97,0.04,,,0.20,WUHU21636XXSP,2013-01-23 21:13:00,
2013-01-23 13:14:00,39.9,39.0,29.85,SE,135,0.0,1.1,97,0.04,,,0.20,WUHU21636XXSP,2013-01-23 21:14:00,
2013-01-23 13:15:00,40.1,39.2,29.85,SE,135,0.0,1.1,97,0.04,,,0.20,WUHU21636XXSP,2013-01-23 21:15:00,
2013-01-23 13:16:00,40.1,39.2,29.85,SE,135,0.0,1.1,97,0.04,,,0.20,WUHU21636XXSP,2013-01-23 21:16:00,
2013-01-23 13:18:00,40.1,39.2,29.86,SE,135,0.0,1.1,97,0.04,,,0.20,WUHU21636XXSP,2013-01-23 21:18:00,
2013-01-23 13:19:00,40.1,39.2,29.86,SE,135,0.0,1.1,97,0.04,,,0.20,WUHU21636XXSP,2013-01-23 21:19:00,
2013-01-23 13:20:00,40.1,39.2,29.86,SE,135,0.0,0.0,97,0.04,,,0.20,WUHU21636XXSP,2013-01-23 21:20:00,
2013-01-23 13:21:00,39.9,39.0,29.86,ESE,112,0.0,0.0,97,0.04,,,0.20,WUHU21636XXSP,2013-01-23 21:21:00,
2013-01-23 13:23:00,39.9,39.0,29.85,ESE,112,0.0,0.0,97,0.02,,,0.20,WUHU21636XXSP,2013-01-23 21:23:00,
2013-01-23 13:24:00,40.1,39.2,29.85,ESE,112,0.0,0.0,97,0.02,,,0.20,WUHU21636XXSP,2013-01-23 21:24:00,
2013-01-23 13:25:00,40.1,39.2,29.86,ESE,112,0.0,0.0,97,0.02,,,0.20,WUHU21636XXSP,2013-01-23 21:25:00,
2013-01-23 13:27:00,40.1,39.2,29.86,SSE,157,0.0,0.0,97,0.02,,,0.20,WUHU21636XXSP,2013-01-23 21:27:00,
2013-01-23 13:29:00,40.1,39.2,29.86,ESE,112,2.9,2.9,97,0.04,,,0.22,WUHU21636XXSP,2013-01-23 21:29:00,
2013-01-23 13:30:00,40.3,39.4,29.86,ESE,112,2.9,2.9,97,0.04,,,0.22,WUHU21636XXSP,2013-01-23 21:30:00,
2013-01-23 13:32:00,40.3,39.4,29.85,ESE,112,2.9,2.9,97,0.04,,,0.22,WUHU21636XXSP,2013-01-23 21:32:00,
2013-01-23 13:34:00,40.3,39.4,29.86,SSE,157,0.0,2.9,97,0.04,,,0.22,WUHU21636XXSP,2013-01-23 21:34:00,
2013-01-23 13:36:00,40.3,39.4,29.85,ESE,112,0.0,2.9,97,0.04,,,0.22,WUHU21636XXSP,2013-01-23 21:36:00,
2013-01-23 13:37:00,40.3,39.4,29.85,South,180,0.0,2.9,97,0.04,,,0.22,WUHU21636XXSP,2013-01-23 21:37:00,
2013-01-23 13:39:00,40.3,39.4,29.86,South,180,0.0,2.9,97,0.04,,,0.22,WUHU21636XXSP,2013-01-23 21:39:00,
2013-01-23 13:41:00,40.3,39.4,29.86,South,180,0.0,0.0,97,0.04,,,0.22,WUHU21636XXSP,2013-01-23 21:41:00,
2013-01-23 13:42:00,40.3,39.4,29.86,South,180,0.0,0.0,97,0.04,,,0.22,WUHU21636XXSP,2013-01-23 21:42:00,
2013-01-23 13:44:00,40.1,39.2,29.86,South,180,0.0,0.0,97,0.04,,,0.22,WUHU21636XXSP,2013-01-23 21:44:00,
2013-01-23 13:46:00,40.3,39.4,29.86,SSW,202,0.0,0.0,97,0.04,,,0.22,WUHU21636XXSP,2013-01-23 21:46:00,
2013-01-23 13:48:00,40.1,39.2,29.86,SSW,202,0.0,0.0,97,0.04,,,0.22,WUHU21636XXSP,2013-01-23 21:48:00,
2013-01-23 13:49:00,40.1,39.2,29.86,SSW,202,0.0,0.0,97,0.04,,,0.22,WUHU21636XXSP,2013-01-23 21:49:00,
2013-01-23 13:51:00,40.3,39.4,29.86,SSW,202,0.0,0.0,97,0.04,,,0.22,WUHU21636XXSP,2013-01-23 21:51:00,
2013-01-23 13:53:00,40.3,39.4,29.86,SSW,202,0.0,0.0,97,0.04,,,0.22,WUHU21636XXSP,2013-01-23 21:53:00,
2013-01-23 13:54:00,40.3,39.4,29.86,SSW,202,0.0,0.0,97,0.04,,,0.22,WUHU21636XXSP,2013-01-23 21:54:00,
2013-01-23 13:55:00,40.3,39.4,29.86,SSW,202,0.0,0.0,97,0.04,,,0.22,WUHU21636XXSP,2013-01-23 21:55:00,
2013-01-23 13:56:00,40.3,39.4,29.86,South,180,0.0,0.0,97,0.04,,,0.22,WUHU21636XXSP,2013-01-23 21:56:00,
2013-01-23 13:58:00,40.3,39.4,29.86,South,180,0.0,0.0,97,0.04,,,0.22,WUHU21636XXSP,2013-01-23 21:58:00,
2013-01-23 13:59:00,40.3,39.4,29.86,South,180,0.0,0.0,97,0.04,,,0.22,WUHU21636XXSP,2013-01-23 21:59:00,
2013-01-23 14:00:00,40.3,39.4,29.86,South,180,0.0,0.0,97,0.04,,,0.22,WUHU21636XXSP,2013-01-23 22:00:00,
2013-01-23 14:01:00,40.3,39.4,29.86,SSW,202,0.0,0.0,97,0.06,,,0.24,WUHU21636XXSP,2013-01-23 22:01:00,
2013-01-23 14:03:00,40.3,39.4,29.86,SW,225,0.0,0.0,97,0.06,,,0.24,WUHU21636XXSP,2013-01-23 22:03:00,
2013-01-23 14:04:00,40.3,39.4,29.86,SW,225,0.0,0.0,97,0.06,,,0.24,WUHU21636XXSP,2013-01-23 22:04:00,
2013-01-23 14:05:00,40.6,39.7,29.86,SW,225,0.0,0.0,97,0.06,,,0.24,WUHU21636XXSP,2013-01-23 22:05:00,
2013-01-23 14:07:00,40.6,39.7,29.86,SW,225,0.0,0.0,97,0.04,,,0.24,WUHU21636XXSP,2013-01-23 22:07:00,
2013-01-23 14:08:00,40.6,39.7,29.87,SW,225,0.0,0.0,97,0.04,,,0.24,WUHU21636XXSP,2013-01-23 22:08:00,
2013-01-23 14:09:00,40.6,39.7,29.86,SW,225,0.0,0.0,97,0.04,,,0.24,WUHU21636XXSP,2013-01-23 22:09:00,
2013-01-23 14:10:00,40.6,39.7,29.86,SW,225,0.0,0.0,97,0.04,,,0.24,WUHU21636XXSP,2013-01-23 22:10:00,
2013-01-23 14:12:00,40.6,39.7,29.87,SW,225,0.0,0.0,97,0.04,,,0.24,WUHU21636XXSP,2013-01-23 22:12:00,
2013-01-23 14:13:00,40.6,39.7,29.87,SSW,202,0.0,0.0,97,0.04,,,0.24,WUHU21636XXSP,2013-01-23 22:13:00,
2013-01-23 14:14:00,40.6,39.7,29.87,SSW,202,0.0,0.0,97,0.04,,,0.24,WUHU21636XXSP,2013-01-23 22:14:00,
2013-01-23 14:15:00,40.6,39.7,29.87,SSW,202,0.0,0.0,97,0.04,,,0.24,WUHU21636XXSP,2013-01-23 22:15:00,
2013-01-23 14:17:00,40.6,39.7,29.87,SSW,202,0.0,0.0,97,0.04,,,0.24,WUHU21636XXSP,2013-01-23 22:17:00,
2013-01-23 14:18:00,40.6,39.7,29.87,SSW,202,3.3,3.3,97,0.04,,,0.24,WUHU21636XXSP,2013-01-23 22:18:00,
2013-01-23 14:20:00,40.3,39.4,29.87,SSW,202,3.3,3.3,97,0.04,,,0.24,WUHU21636XXSP,2013-01-23 22:20:00,
2013-01-23 14:22:00,40.6,39.7,29.87,ESE,112,0.0,3.3,97,0.06,,,0.26,WUHU21636XXSP,2013-01-23 22:22:00,
2013-01-23 14:24:00,40.6,39.7,29.87,ESE,112,0.0,3.3,97,0.06,,,0.26,WUHU21636XXSP,2013-01-23 22:24:00,
2013-01-23 14:25:00,40.3,39.4,29.87,SE,135,0.0,3.3,97,0.06,,,0.26,WUHU21636XXSP,2013-01-23 22:25:00,
2013-01-23 14:27:00,40.3,39.4,29.87,SSW,202,0.0,3.3,97,0.06,,,0.26,WUHU21636XXSP,2013-01-23 22:27:00,
2013-01-23 14:29:00,40.5,39.6,29.87,SSW,202,0.0,3.3,97,0.04,,,0.26,WUHU21636XXSP,2013-01-23 22:29:00,
2013-01-23 14:30:00,40.5,39.6,29.87,SSW,202,0.0,0.0,97,0.04,,,0.26,WUHU21636XXSP,2013-01-23 22:30:00,
2013-01-23 14:31:00,40.5,39.6,29.87,ENE,67,0.0,0.0,97,0.04,,,0.26,WUHU21636XXSP,2013-01-23 22:31:00,
2013-01-23 14:32:00,40.5,39.6,29.87,ESE,112,0.0,0.0,97,0.04,,,0.26,WUHU21636XXSP,2013-01-23 22:32:00,
2013-01-23 14:34:00,40.5,39.6,29.87,ESE,112,0.0,0.0,97,0.04,,,0.26,WUHU21636XXSP,2013-01-23 22:34:00,
2013-01-23 14:35:00,40.3,39.4,29.87,SW,225,0.0,0.0,97,0.04,,,0.26,WUHU21636XXSP,2013-01-23 22:35:00,
2013-01-23 14:36:00,40.3,39.4,29.87,SW,225,0.0,0.0,97,0.04,,,0.26,WUHU21636XXSP,2013-01-23 22:36:00,
2013-01-23 14:37:00,40.3,39.4,29.87,SW,225,0.0,0.0,97,0.04,,,0.26,WUHU21636XXSP,2013-01-23 22:37:00,
2013-01-23 14:39:00,40.3,39.4,29.87,SSW,202,0.6,0.6,97,0.04,,,0.26,WUHU21636XXSP,2013-01-23 22:39:00,
2013-01-23 14:40:00,40.3,39.4,29.87,SSW,202,0.6,0.6,97,0.04,,,0.26,WUHU21636XXSP,2013-01-23 22:40:00,
2013-01-23 14:41:00,40.3,39.4,29.88,SSW,202,0.6,0.6,97,0.04,,,0.26,WUHU21636XXSP,2013-01-23 22:41:00,
2013-01-23 14:42:00,40.3,39.4,29.88,SSW,202,0.6,0.6,97,0.04,,,0.26,WUHU21636XXSP,2013-01-23 22:42:00,
2013-01-23 14:44:00,40.3,39.4,29.88,SSW,197,3.2,6.2,97,0.04,,,0.26,WUHU21636XXSP,2013-01-23 22:44:00,
2013-01-23 14:45:00,40.3,39.4,29.88,South,180,1.3,6.2,97,0.04,,,0.26,WUHU21636XXSP,2013-01-23 22:45:00,
2013-01-23 14:47:00,40.1,39.2,29.88,SSE,162,0.9,6.2,97,0.04,,,0.26,WUHU21636XXSP,2013-01-23 22:47:00,
2013-01-23 14:50:00,40.3,39.4,29.88,South,180,0.0,6.2,97,0.04,,,0.26,WUHU21636XXSP,2013-01-23 22:50:00,
2013-01-23 14:52:00,40.3,39.4,29.88,SE,135,0.0,6.2,97,0.04,,,0.26,WUHU21636XXSP,2013-01-23 22:52:00,
2013-01-23 14:55:00,40.1,39.2,29.88,SSE,154,4.5,10.5,97,0.04,,,0.26,WUHU21636XXSP,2013-01-23 22:55:00,
2013-01-23 14:56:00,40.1,39.2,29.88,SSE,162,3.5,10.5,97,0.04,,,0.26,WUHU21636XXSP,2013-01-23 22:56:00,
2013-01-23 14:57:00,40.1,39.2,29.88,SSW,202,1.5,10.5,97,0.06,,,0.28,WUHU21636XXSP,2013-01-23 22:57:00,
2013-01-23 15:00:00,40.1,39.2,29.88,SSE,157,3.8,10.5,97,0.04,,,0.28,WUHU21636XXSP,2013-01-23 23:00:00,
2013-01-23 15:01:00,40.1,39.2,29.88,SSE,157,3.8,10.5,97,0.04,,,0.28,WUHU21636XXSP,2013-01-23 23:01:00,
2013-01-23 15:02:00,40.1,39.2,29.88,SSE,157,3.8,10.5,97,0.04,,,0.28,WUHU21636XXSP,2013-01-23 23:02:00,
2013-01-23 15:03:00,40.1,39.2,29.88,SSE,157,3.8,10.5,97,0.04,,,0.28,WUHU21636XXSP,2013-01-23 23:03:00,
2013-01-23 15:06:00,39.9,39.0,29.88,SSE,157,3.7,4.0,97,0.04,,,0.28,WUHU21636XXSP,2013-01-23 23:06:00,
2013-01-23 15:07:00,39.9,39.0,29.88,SSE,157,2.9,4.0,97,0.04,,,0.28,WUHU21636XXSP,2013-01-23 23:07:00,
2013-01-23 15:08:00,39.9,39.0,29.88,SSE,157,2.9,4.0,97,0.04,,,0.28,WUHU21636XXSP,2013-01-23 23:08:00,
2013-01-23 15:11:00,39.9,39.0,29.88,SW,225,4.0,4.0,97,0.04,,,0.28,WUHU21636XXSP,2013-01-23 23:11:00,
2013-01-23 15:12:00,39.9,39.0,29.88,SSW,213,2.8,4.0,97,0.04,,,0.28,WUHU21636XXSP,2013-01-23 23:12:00,
2013-01-23 15:13:00,39.9,39.0,29.88,South,189,1.9,4.0,97,0.04,,,0.28,WUHU21636XXSP,2013-01-23 23:13:00,
2013-01-23 15:16:00,39.9,39.0,29.88,South,180,3.1,4.0,97,0.04,,,0.28,WUHU21636XXSP,2013-01-23 23:16:00,
2013-01-23 15:17:00,39.9,39.0,29.88,SSW,202,4.4,4.4,97,0.04,,,0.28,WUHU21636XXSP,2013-01-23 23:17:00,
2013-01-23 15:18:00,39.9,39.0,29.88,SSW,202,4.4,4.4,97,0.04,,,0.28,WUHU21636XXSP,2013-01-23 23:18:00,
2013-01-23 15:21:00,39.7,38.8,29.88,SSE,157,0.2,4.4,97,0.04,,,0.28,WUHU21636XXSP,2013-01-23 23:21:00,
2013-01-23 15:22:00,39.7,38.8,29.88,SE,135,2.9,4.4,97,0.02,,,0.28,WUHU21636XXSP,2013-01-23 23:22:00,
2013-01-23 15:23:00,39.7,38.8,29.88,SE,135,2.9,4.4,97,0.02,,,0.28,WUHU21636XXSP,2013-01-23 23:23:00,
2013-01-23 15:26:00,39.7,38.8,29.88,SSE,157,3.5,4.4,97,0.02,,,0.28,WUHU21636XXSP,2013-01-23 23:26:00,
2013-01-23 15:28:00,39.6,38.5,29.89,SSW,192,6.6,13.6,96,0.02,,,0.28,WUHU21636XXSP,2013-01-23 23:28:00,
2013-01-23 15:31:00,39.4,38.5,29.89,SSE,157,5.5,13.6,97,0.02,,,0.28,WUHU21636XXSP,2013-01-23 23:31:00,
2013-01-23 15:33:00,39.4,38.5,29.89,SE,139,3.3,13.6,97,0.02,,,0.28,WUHU21636XXSP,2013-01-23 23:33:00,
2013-01-23 15:36:00,39.6,38.7,29.89,ESE,112,2.4,13.6,97,0.02,,,0.28,WUHU21636XXSP,2013-01-23 23:36:00,
2013-01-23 15:38:00,39.4,38.5,29.89,South,181,4.2,8.9,97,0.02,,,0.28,WUHU21636XXSP,2013-01-23 23:38:00,
2013-01-23 15:41:00,39.6,38.7,29.89,SSW,202,2.6,8.9,97,0.02,,,0.28,WUHU21636XXSP,2013-01-23 23:41:00,
2013-01-23 15:43:00,39.6,38.7,29.89,South,178,2.5,6.9,97,0.02,,,0.28,WUHU21636XXSP,2013-01-23 23:43:00,
2013-01-23 15:44:00,39.6,38.7,29.89,South,176,2.5,6.9,97,0.02,,,0.28,WUHU21636XXSP,2013-01-23 23:44:00,
2013-01-23 15:46:00,39.4,38.5,29.89,South,180,3.3,6.9,97,0.02,,,0.28,WUHU21636XXSP,2013-01-23 23:46:00,
2013-01-23 15:49:00,39.4,38.3,29.89,South,180,4.0,4.0,96,0.02,,,0.28,WUHU21636XXSP,2013-01-23 23:49:00,
2013-01-23 15:51:00,39.4,38.3,29.89,South,180,2.9,4.0,96,0.02,,,0.28,WUHU21636XXSP,2013-01-23 23:51:00,
2013-01-23 15:52:00,39.4,38.3,29.89,South,180,2.9,4.0,96,0.02,,,0.28,WUHU21636XXSP,2013-01-23 23:52:00,
2013-01-23 15:54:00,39.4,38.3,29.89,South,180,2.4,4.0,96,0.02,,,0.28,WUHU21636XXSP,2013-01-23 23:54:00,
2013-01-23 15:57:00,39.2,38.1,29.89,South,190,7.5,12.0,96,0.00,,,0.28,WUHU21636XXSP,2013-01-23 23:57:00,
2013-01-23 15:59:00,39.2,38.1,29.89,SW,233,2.4,12.0,96,0.00,,,0.28,WUHU21636XXSP,2013-01-23 23:59:00,
2013-01-23 16:02:00,39.0,37.9,29.89,South,180,2.4,12.0,96,0.00,,,0.28,WUHU21636XXSP,2013-01-24 00:02:00,
2013-01-23 16:04:00,39.2,38.1,29.89,South,180,2.4,12.0,96,0.00,,,0.28,WUHU21636XXSP,2013-01-24 00:04:00,
2013-01-23 16:07:00,39.0,37.9,29.90,SSE,157,1.5,2.4,96,0.00,,,0.28,WUHU21636XXSP,2013-01-24 00:07:00,
2013-01-23 16:09:00,39.0,37.9,29.90,SSE,157,0.0,2.4,96,0.00,,,0.28,WUHU21636XXSP,2013-01-24 00:09:00,
2013-01-23 16:12:00,39.0,37.9,29.90,SSE,157,0.0,2.4,96,0.00,,,0.28,WUHU21636XXSP,2013-01-24 00:12:00,
2013-01-23 16:14:00,39.0,37.9,29.90,SSE,157,4.2,4.2,96,0.00,,,0.28,WUHU21636XXSP,2013-01-24 00:14:00,
2013-01-23 16:17:00,38.8,37.7,29.90,SSE,167,3.6,4.2,96,0.02,,,0.30,WUHU21636XXSP,2013-01-24 00:17:00,
2013-01-23 16:20:00,38.8,37.7,29.90,South,180,2.9,4.2,96,0.02,,,0.30,WUHU21636XXSP,2013-01-24 00:20:00,
2013-01-23 16:22:00,38.8,37.7,29.90,South,180,2.9,4.2,96,0.02,,,0.30,WUHU21636XXSP,2013-01-24 00:22:00,
2013-01-23 16:25:00,38.8,37.7,29.91,South,180,2.4,4.2,96,0.02,,,0.30,WUHU21636XXSP,2013-01-24 00:25:00,
2013-01-23 16:27:00,38.8,37.7,29.91,SSW,202,0.0,3.1,96,0.02,,,0.30,WUHU21636XXSP,2013-01-24 00:27:00,
2013-01-23 16:28:00,38.8,37.7,29.91,SSW,202,0.0,3.1,96,0.02,,,0.30,WUHU21636XXSP,2013-01-24 00:28:00,
2013-01-23 16:30:00,39.0,37.9,29.91,South,180,2.9,2.9,96,0.02,,,0.30,WUHU21636XXSP,2013-01-24 00:30:00,
2013-01-23 16:32:00,38.8,37.7,29.91,SSW,202,4.6,4.6,96,0.02,,,0.30,WUHU21636XXSP,2013-01-24 00:32:00,
2013-01-23 16:33:00,38.8,37.7,29.91,SSW,202,4.6,4.6,96,0.02,,,0.30,WUHU21636XXSP,2013-01-24 00:33:00,
2013-01-23 16:35:00,38.8,37.7,29.91,SE,135,0.0,4.6,96,0.02,,,0.30,WUHU21636XXSP,2013-01-24 00:35:00,
2013-01-23 16:36:00,38.8,37.7,29.91,SE,135,0.0,4.6,96,0.02,,,0.30,WUHU21636XXSP,2013-01-24 00:36:00,
2013-01-23 16:37:00,38.8,37.7,29.91,SE,135,0.0,4.6,96,0.02,,,0.30,WUHU21636XXSP,2013-01-24 00:37:00,
2013-01-23 16:38:00,38.8,37.7,29.91,South,180,0.0,4.6,96,0.02,,,0.30,WUHU21636XXSP,2013-01-24 00:38:00,
2013-01-23 16:40:00,38.8,37.7,29.91,South,180,0.0,4.6,96,0.02,,,0.30,WUHU21636XXSP,2013-01-24 00:40:00,
2013-01-23 16:41:00,38.8,37.7,29.91,South,180,0.0,4.6,96,0.02,,,0.30,WUHU21636XXSP,2013-01-24 00:41:00,
2013-01-23 16:43:00,38.8,37.7,29.91,ENE,67,0.0,4.6,96,0.02,,,0.30,WUHU21636XXSP,2013-01-24 00:43:00,
2013-01-23 16:45:00,38.8,37.7,29.92,SE,135,0.0,0.0,96,0.02,,,0.30,WUHU21636XXSP,2013-01-24 00:45:00,
2013-01-23 16:46:00,38.8,37.7,29.92,SE,135,0.0,0.0,96,0.02,,,0.30,WUHU21636XXSP,2013-01-24 00:46:00,
2013-01-23 16:48:00,38.8,37.7,29.92,SSE,157,0.0,0.0,96,0.02,,,0.30,WUHU21636XXSP,2013-01-24 00:48:00,
2013-01-23 16:50:00,38.8,37.9,29.92,SE,135,0.0,0.0,97,0.02,,,0.30,WUHU21636XXSP,2013-01-24 00:50:00,
2013-01-23 16:51:00,38.8,37.9,29.92,SE,135,0.0,0.0,97,0.02,,,0.30,WUHU21636XXSP,2013-01-24 00:51:00,
2013-01-23 16:53:00,38.8,37.9,29.92,SSE,157,0.0,0.0,97,0.02,,,0.30,WUHU21636XXSP,2013-01-24 00:53:00,
2013-01-23 16:55:00,38.8,37.9,29.93,SSE,157,0.0,0.0,97,0.02,,,0.30,WUHU21636XXSP,2013-01-24 00:55:00,
2013-01-23 16:56:00,38.8,37.9,29.93,SSE,157,0.0,0.0,97,0.02,,,0.30,WUHU21636XXSP,2013-01-24 00:56:00,
2013-01-23 16:58:00,38.8,37.9,29.93,SE,135,0.0,0.0,97,0.02,,,0.30,WUHU21636XXSP,2013-01-24 00:58:00,
2013-01-23 17:01:00,38.8,37.9,29.93,ENE,67,0.0,0.0,97,0.02,,,0.30,WUHU21636XXSP,2013-01-24 01:01:00,
2013-01-23 17:03:00,38.8,37.9,29.93,SSE,157,0.0,0.0,97,0.02,,,0.30,WUHU21636XXSP,2013-01-24 01:03:00,
2013-01-23 17:06:00,38.8,37.9,29.93,SSE,157,0.0,0.0,97,0.02,,,0.30,WUHU21636XXSP,2013-01-24 01:06:00,
2013-01-23 17:08:00,38.8,37.9,29.93,SSE,157,0.0,0.0,97,0.02,,,0.30,WUHU21636XXSP,2013-01-24 01:08:00,
2013-01-23 17:11:00,38.8,37.9,29.93,SSE,157,0.0,0.0,97,0.02,,,0.30,WUHU21636XXSP,2013-01-24 01:11:00,
2013-01-23 17:13:00,38.8,37.9,29.93,SSE,157,0.0,0.0,97,0.02,,,0.30,WUHU21636XXSP,2013-01-24 01:13:00,
2013-01-23 17:16:00,38.8,37.9,29.93,SSE,157,0.0,0.0,97,0.00,,,0.30,WUHU21636XXSP,2013-01-24 01:16:00,
2013-01-23 17:18:00,38.8,37.9,29.94,SSE,157,0.0,0.0,97,0.00,,,0.30,WUHU21636XXSP,2013-01-24 01:18:00,
2013-01-23 17:21:00,38.8,37.9,29.94,SSE,157,0.0,0.0,97,0.00,,,0.30,WUHU21636XXSP,2013-01-24 01:21:00,
2013-01-23 17:23:00,38.8,37.9,29.94,SE,135,0.0,0.0,97,0.00,,,0.30,WUHU21636XXSP,2013-01-24 01:23:00,
2013-01-23 17:24:00,38.8,37.9,29.94,SE,135,0.0,0.0,97,0.00,,,0.30,WUHU21636XXSP,2013-01-24 01:24:00,
2013-01-23 17:26:00,38.8,37.9,29.94,SSE,157,0.0,0.0,97,0.00,,,0.30,WUHU21636XXSP,2013-01-24 01:26:00,
2013-01-23 17:28:00,38.8,37.9,29.94,SSE,157,0.0,0.0,97,0.00,,,0.30,WUHU21636XXSP,2013-01-24 01:28:00,
2013-01-23 17:29:00,38.8,37.9,29.94,SSE,157,0.0,0.0,97,0.00,,,0.30,WUHU21636XXSP,2013-01-24 01:29:00,
2013-01-23 17:32:00,38.8,37.9,29.94,South,180,0.0,0.0,97,0.00,,,0.30,WUHU21636XXSP,2013-01-24 01:32:00,
2013-01-23 17:33:00,38.8,37.9,29.95,South,180,0.0,0.0,97,0.00,,,0.30,WUHU21636XXSP,2013-01-24 01:33:00,
2013-01-23 17:34:00,38.8,37.9,29.95,South,180,0.0,0.0,97,0.00,,,0.30,WUHU21636XXSP,2013-01-24 01:34:00,
2013-01-23 17:37:00,38.8,37.9,29.95,South,180,0.0,0.0,97,0.00,,,0.30,WUHU21636XXSP,2013-01-24 01:37:00,
2013-01-23 17:38:00,38.8,37.9,29.95,South,180,0.0,0.0,97,0.00,,,0.30,WUHU21636XXSP,2013-01-24 01:38:00,
2013-01-23 17:39:00,38.8,37.9,29.95,South,180,0.0,0.0,97,0.00,,,0.30,WUHU21636XXSP,2013-01-24 01:39:00,
2013-01-23 17:42:00,38.8,37.9,29.95,South,180,0.0,0.0,97,0.00,,,0.30,WUHU21636XXSP,2013-01-24 01:42:00,
2013-01-23 17:44:00,38.8,37.9,29.95,South,180,0.0,0.0,97,0.00,,,0.30,WUHU21636XXSP,2013-01-24 01:44:00,
2013-01-23 17:47:00,38.8,37.9,29.95,SE,135,0.0,0.0,97,0.00,,,0.30,WUHU21636XXSP,2013-01-24 01:47:00,
2013-01-23 17:49:00,38.8,37.9,29.95,SE,135,0.0,0.0,97,0.00,,,0.30,WUHU21636XXSP,2013-01-24 01:49:00,
2013-01-23 17:52:00,38.8,37.9,29.95,SE,135,0.0,0.0,97,0.00,,,0.30,WUHU21636XXSP,2013-01-24 01:52:00,
2013-01-23 17:54:00,38.8,37.9,29.95,SE,135,0.0,0.0,97,0.00,,,0.30,WUHU21636XXSP,2013-01-24 01:54:00,
2013-01-23 17:57:00,38.8,37.9,29.95,SE,135,0.0,0.0,97,0.00,,,0.30,WUHU21636XXSP,2013-01-24 01:57:00,
2013-01-23 17:59:00,38.8,37.9,29.95,SE,135,0.0,0.0,97,0.00,,,0.30,WUHU21636XXSP,2013-01-24 01:59:00,
2013-01-23 18:02:00,38.8,37.9,29.95,SE,135,0.0,0.0,97,0.00,,,0.30,WUHU21636XXSP,2013-01-24 02:02:00,
2013-01-23 18:04:00,38.8,37.9,29.95,SE,135,0.0,0.0,97,0.00,,,0.30,WUHU21636XXSP,2013-01-24 02:04:00,
2013-01-23 18:05:00,38.8,37.9,29.95,SE,135,0.0,0.0,97,0.00,,,0.30,WUHU21636XXSP,2013-01-24 02:05:00,
2013-01-23 18:07:00,38.8,37.9,29.95,SE,135,0.0,0.0,97,0.00,,,0.30,WUHU21636XXSP,2013-01-24 02:07:00,
2013-01-23 18:09:00,38.8,37.9,29.95,SSE,157,0.0,0.0,97,0.00,,,0.30,WUHU21636XXSP,2013-01-24 02:09:00,
2013-01-23 18:10:00,38.8,37.9,29.95,SSE,157,0.0,0.0,97,0.00,,,0.30,WUHU21636XXSP,2013-01-24 02:10:00,
2013-01-23 18:12:00,38.8,37.9,29.95,SSE,157,0.0,0.0,97,0.00,,,0.30,WUHU21636XXSP,2013-01-24 02:12:00,
2013-01-23 18:14:00,38.8,37.9,29.95,SSE,157,0.0,0.0,97,0.00,,,0.30,WUHU21636XXSP,2013-01-24 02:14:00,
2013-01-23 18:15:00,38.8,37.9,29.95,South,180,0.0,0.0,97,0.00,,,0.30,WUHU21636XXSP,2013-01-24 02:15:00,
2013-01-23 18:17:00,39.2,38.3,29.95,SSW,202,0.0,0.0,97,0.00,,,0.30,WUHU21636XXSP,2013-01-24 02:17:00,
2013-01-23 18:19:00,39.2,38.3,29.96,SSW,202,0.0,0.0,97,0.00,,,0.30,WUHU21636XXSP,2013-01-24 02:19:00,
2013-01-23 18:20:00,39.2,38.3,29.96,SSW,202,0.0,0.0,97,0.00,,,0.30,WUHU21636XXSP,2013-01-24 02:20:00,
2013-01-23 18:22:00,39.2,38.3,29.96,SSW,202,0.0,0.0,97,0.00,,,0.30,WUHU21636XXSP,2013-01-24 02:22:00,
2013-01-23 18:25:00,39.2,38.3,29.96,SSW,202,0.0,0.0,97,0.00,,,0.30,WUHU21636XXSP,2013-01-24 02:25:00,
2013-01-23 18:28:00,39.2,38.3,29.96,SSW,202,0.0,0.0,97,0.00,,,0.30,WUHU21636XXSP,2013-01-24 02:28:00,
2013-01-23 18:30:00,39.2,38.3,29.96,SSW,202,0.0,0.0,97,0.00,,,0.30,WUHU21636XXSP,2013-01-24 02:30:00,
2013-01-23 18:32:00,39.0,38.1,29.96,SSW,202,0.0,0.0,97,0.00,,,0.30,WUHU21636XXSP,2013-01-24 02:32:00,
2013-01-23 18:35:00,39.0,38.1,29.96,SSW,202,0.0,0.0,97,0.00,,,0.30,WUHU21636XXSP,2013-01-24 02:35:00,
2013-01-23 18:36:00,39.0,38.1,29.96,SSW,202,0.0,0.0,97,0.00,,,0.30,WUHU21636XXSP,2013-01-24 02:36:00,
2013-01-23 18:39:00,39.0,38.1,29.96,South,180,0.0,0.0,97,0.00,,,0.30,WUHU21636XXSP,2013-01-24 02:39:00,
2013-01-23 18:40:00,39.0,38.1,29.96,South,180,0.0,0.0,97,0.00,,,0.30,WUHU21636XXSP,2013-01-24 02:40:00,
2013-01-23 18:41:00,38.8,37.9,29.96,ESE,112,0.0,0.0,97,0.00,,,0.30,WUHU21636XXSP,2013-01-24 02:41:00,
2013-01-23 18:44:00,38.8,37.9,29.96,ESE,112,0.0,0.0,97,0.00,,,0.30,WUHU21636XXSP,2013-01-24 02:44:00,
2013-01-23 18:45:00,38.8,37.9,29.96,ESE,112,0.0,0.0,97,0.00,,,0.30,WUHU21636XXSP,2013-01-24 02:45:00,
2013-01-23 18:46:00,38.8,37.9,29.96,ESE,112,0.0,0.0,97,0.00,,,0.30,WUHU21636XXSP,2013-01-24 02:46:00,
2013-01-23 18:49:00,38.8,38.2,29.97,SSE,157,0.0,0.0,98,0.00,,,0.30,WUHU21636XXSP,2013-01-24 02:49:00,
2013-01-23 18:50:00,38.8,38.2,29.97,SSE,157,0.0,0.0,98,0.00,,,0.30,WUHU21636XXSP,2013-01-24 02:50:00,
2013-01-23 18:51:00,38.8,38.2,29.97,SSE,157,0.0,0.0,98,0.00,,,0.30,WUHU21636XXSP,2013-01-24 02:51:00,
2013-01-23 18:54:00,38.8,38.2,29.97,SSE,157,0.0,0.0,98,0.00,,,0.30,WUHU21636XXSP,2013-01-24 02:54:00,
2013-01-23 18:55:00,38.8,38.2,29.97,SSE,157,0.0,0.0,98,0.00,,,0.30,WUHU21636XXSP,2013-01-24 02:55:00,
2013-01-23 18:56:00,38.8,38.2,29.97,SSE,157,0.0,0.0,98,0.00,,,0.30,WUHU21636XXSP,2013-01-24 02:56:00,
2013-01-23 18:59:00,38.8,38.2,29.97,SSE,157,0.0,0.0,98,0.00,,,0.30,WUHU21636XXSP,2013-01-24 02:59:00,
2013-01-23 19:00:00,38.8,38.2,29.97,SSE,157,0.0,0.0,98,0.00,,,0.30,WUHU21636XXSP,2013-01-24 03:00:00,
2013-01-23 19:01:00,38.8,38.2,29.97,SSE,157,0.0,0.0,98,0.00,,,0.30,WUHU21636XXSP,2013-01-24 03:01:00,
2013-01-23 19:04:00,38.8,38.2,29.98,SSE,157,0.0,0.0,98,0.00,,,0.30,WUHU21636XXSP,2013-01-24 03:04:00,
2013-01-23 19:05:00,38.8,38.2,29.98,SSE,157,0.0,0.0,98,0.00,,,0.30,WUHU21636XXSP,2013-01-24 03:05:00,
2013-01-23 19:06:00,38.8,38.2,29.98,SSE,157,0.0,0.0,98,0.00,,,0.30,WUHU21636XXSP,2013-01-24 03:06:00,
2013-01-23 19:09:00,38.8,38.2,29.98,SSE,157,0.0,0.0,98,0.00,,,0.30,WUHU21636XXSP,2013-01-24 03:09:00,
2013-01-23 19:10:00,39.0,38.4,29.98,SSE,157,0.0,0.0,98,0.00,,,0.30,WUHU21636XXSP,2013-01-24 03:10:00,
2013-01-23 19:12:00,39.0,38.4,29.98,SSE,157,0.0,0.0,98,0.00,,,0.30,WUHU21636XXSP,2013-01-24 03:12:00,
2013-01-23 19:15:00,39.0,38.4,29.98,ESE,112,0.0,0.0,98,0.00,,,0.30,WUHU21636XXSP,2013-01-24 03:15:00,
2013-01-23 19:17:00,39.0,38.4,29.98,South,180,0.0,0.0,98,0.00,,,0.30,WUHU21636XXSP,2013-01-24 03:17:00,
2013-01-23 19:20:00,39.0,38.4,29.98,South,180,0.0,0.0,98,0.00,,,0.30,WUHU21636XXSP,2013-01-24 03:20:00,
2013-01-23 19:21:00,39.0,38.4,29.99,South,180,0.0,0.0,98,0.00,,,0.30,WUHU21636XXSP,2013-01-24 03:21:00,
2013-01-23 19:22:00,39.0,38.4,29.99,South,180,0.0,0.0,98,0.00,,,0.30,WUHU21636XXSP,2013-01-24 03:22:00,
2013-01-23 19:25:00,39.0,38.4,29.98,SSE,157,2.4,2.4,98,0.00,,,0.30,WUHU21636XXSP,2013-01-24 03:25:00,
2013-01-23 19:26:00,39.0,38.4,29.98,SSE,157,2.4,2.4,98,0.00,,,0.30,WUHU21636XXSP,2013-01-24 03:26:00,
2013-01-23 19:27:00,39.0,38.4,29.98,SSE,157,2.4,2.4,98,0.00,,,0.30,WUHU21636XXSP,2013-01-24 03:27:00,
2013-01-23 19:30:00,39.0,38.4,29.99,SSE,157,0.0,2.4,98,0.00,,,0.30,WUHU21636XXSP,2013-01-24 03:30:00,
2013-01-23 19:31:00,39.0,38.4,29.99,SSE,157,0.0,2.4,98,0.00,,,0.30,WUHU21636XXSP,2013-01-24 03:31:00,
2013-01-23 19:32:00,39.0,38.4,29.99,SE,135,0.0,2.4,98,0.00,,,0.30,WUHU21636XXSP,2013-01-24 03:32:00,
2013-01-23 19:35:00,39.2,38.6,29.99,SE,135,0.0,0.0,98,0.00,,,0.30,WUHU21636XXSP,2013-01-24 03:35:00,
2013-01-23 19:36:00,39.2,38.6,29.99,SE,135,0.0,0.0,98,0.00,,,0.30,WUHU21636XXSP,2013-01-24 03:36:00,
2013-01-23 19:37:00,39.2,38.6,29.99,SE,135,0.0,0.0,98,0.00,,,0.30,WUHU21636XXSP,2013-01-24 03:37:00,
2013-01-23 19:41:00,39.2,38.6,30.00,SE,135,0.0,0.0,98,0.00,,,0.30,WUHU21636XXSP,2013-01-24 03:41:00,
2013-01-23 19:42:00,39.2,38.6,30.00,SE,135,0.0,0.0,98,0.00,,,0.30,WUHU21636XXSP,2013-01-24 03:42:00,
2013-01-23 19:46:00,39.2,38.6,30.00,SE,135,0.0,0.0,98,0.00,,,0.30,WUHU21636XXSP,2013-01-24 03:46:00,
2013-01-23 19:47:00,39.4,38.8,30.01,SE,135,0.0,0.0,98,0.00,,,0.30,WUHU21636XXSP,2013-01-24 03:47:00,
2013-01-23 19:51:00,39.4,38.8,30.01,SE,135,0.0,0.0,98,0.00,,,0.30,WUHU21636XXSP,2013-01-24 03:51:00,
2013-01-23 19:52:00,39.2,38.6,30.01,SE,135,0.0,0.0,98,0.00,,,0.30,WUHU21636XXSP,2013-01-24 03:52:00,
2013-01-23 19:53:00,39.2,38.6,30.01,SE,135,0.0,0.0,98,0.00,,,0.30,WUHU21636XXSP,2013-01-24 03:53:00,
2013-01-23 19:56:00,39.2,38.6,30.01,SE,135,0.0,0.0,98,0.00,,,0.30,WUHU21636XXSP,2013-01-24 03:56:00,
2013-01-23 19:57:00,39.2,38.6,30.01,SE,135,0.0,0.0,98,0.00,,,0.30,WUHU21636XXSP,2013-01-24 03:57:00,
2013-01-23 19:58:00,39.2,38.6,30.01,SE,135,0.0,0.0,98,0.00,,,0.30,WUHU21636XXSP,2013-01-24 03:58:00,
2013-01-23 20:01:00,39.4,38.8,30.01,SE,135,0.0,0.0,98,0.00,,,0.30,WUHU21636XXSP,2013-01-24 04:01:00,
2013-01-23 20:02:00,39.4,38.8,30.01,SE,135,0.0,0.0,98,0.00,,,0.30,WUHU21636XXSP,2013-01-24 04:02:00,
2013-01-23 20:03:00,39.4,38.8,30.01,SE,135,0.0,0.0,98,0.00,,,0.30,WUHU21636XXSP,2013-01-24 04:03:00,
2013-01-23 20:06:00,39.4,38.8,30.02,SE,135,0.0,0.0,98,0.00,,,0.30,WUHU21636XXSP,2013-01-24 04:06:00,
2013-01-23 20:07:00,39.4,38.8,30.02,SE,135,0.0,0.0,98,0.00,,,0.30,WUHU21636XXSP,2013-01-24 04:07:00,
2013-01-23 20:08:00,39.4,38.8,30.02,SE,135,0.0,0.0,98,0.00,,,0.30,WUHU21636XXSP,2013-01-24 04:08:00,
2013-01-23 20:11:00,39.4,38.8,30.02,SE,135,0.0,0.0,98,0.00,,,0.30,WUHU21636XXSP,2013-01-24 04:11:00,
2013-01-23 20:12:00,39.4,38.8,30.02,SE,135,0.0,0.0,98,0.00,,,0.30,WUHU21636XXSP,2013-01-24 04:12:00,
2013-01-23 20:13:00,39.4,38.8,30.02,SE,135,0.0,0.0,98,0.00,,,0.30,WUHU21636XXSP,2013-01-24 04:13:00,
2013-01-23 20:16:00,39.2,38.6,30.02,SE,135,0.0,0.0,98,0.00,,,0.30,WUHU21636XXSP,2013-01-24 04:16:00,
2013-01-23 20:17:00,39.2,38.6,30.03,SE,135,0.0,0.0,98,0.00,,,0.30,WUHU21636XXSP,2013-01-24 04:17:00,
2013-01-23 20:18:00,39.2,38.6,30.03,SE,135,0.0,0.0,98,0.00,,,0.30,WUHU21636XXSP,2013-01-24 04:18:00,
2013-01-23 20:21:00,39.2,38.6,30.03,SE,135,0.0,0.0,98,0.00,,,0.30,WUHU21636XXSP,2013-01-24 04:21:00,
2013-01-23 20:22:00,39.2,38.6,30.03,SE,135,0.0,0.0,98,0.00,,,0.30,WUHU21636XXSP,2013-01-24 04:22:00,
2013-01-23 20:23:00,39.2,38.6,30.03,SE,135,0.0,0.0,98,0.00,,,0.30,WUHU21636XXSP,2013-01-24 04:23:00,
2013-01-23 20:27:00,39.4,38.8,30.03,SE,135,0.0,0.0,98,0.00,,,0.30,WUHU21636XXSP,2013-01-24 04:27:00,
2013-01-23 20:28:00,39.4,38.8,30.03,SE,135,0.0,0.0,98,0.00,,,0.30,WUHU21636XXSP,2013-01-24 04:28:00,
2013-01-23 20:32:00,39.4,38.8,30.04,SE,135,0.0,0.0,98,0.00,,,0.30,WUHU21636XXSP,2013-01-24 04:32:00,
2013-01-23 20:33:00,39.2,38.6,30.04,SE,135,0.0,0.0,98,0.00,,,0.30,WUHU21636XXSP,2013-01-24 04:33:00,
2013-01-23 20:37:00,39.0,38.4,30.04,SE,135,0.0,0.0,98,0.00,,,0.30,WUHU21636XXSP,2013-01-24 04:37:00,
2013-01-23 20:38:00,39.0,38.4,30.04,SE,135,0.0,0.0,98,0.00,,,0.30,WUHU21636XXSP,2013-01-24 04:38:00,
2013-01-23 20:42:00,39.0,38.4,30.04,SE,135,0.0,0.0,98,0.00,,,0.30,WUHU21636XXSP,2013-01-24 04:42:00,
2013-01-23 20:43:00,39.0,38.4,30.04,SE,135,0.0,0.0,98,0.00,,,0.30,WUHU21636XXSP,2013-01-24 04:43:00,
2013-01-23 20:47:00,39.0,38.4,30.04,SE,135,0.0,0.0,98,0.00,,,0.30,WUHU21636XXSP,2013-01-24 04:47:00,
2013-01-23 20:48:00,39.0,38.4,30.04,SE,135,0.0,0.0,98,0.00,,,0.30,WUHU21636XXSP,2013-01-24 04:48:00,
2013-01-23 20:52:00,39.0,38.4,30.04,SE,135,0.0,0.0,98,0.00,,,0.30,WUHU21636XXSP,2013-01-24 04:52:00,
2013-01-23 20:53:00,39.0,38.4,30.04,SE,135,0.0,0.0,98,0.00,,,0.30,WUHU21636XXSP,2013-01-24 04:53:00,
2013-01-23 20:54:00,39.0,38.4,30.04,SE,135,0.0,0.0,98,0.00,,,0.30,WUHU21636XXSP,2013-01-24 04:54:00,
2013-01-23 20:57:00,38.8,38.2,30.04,SE,135,0.0,0.0,98,0.00,,,0.30,WUHU21636XXSP,2013-01-24 04:57:00,
2013-01-23 20:58:00,38.8,38.2,30.04,SE,135,0.0,0.0,98,0.00,,,0.30,WUHU21636XXSP,2013-01-24 04:58:00,
2013-01-23 20:59:00,38.8,38.2,30.05,SE,135,0.0,0.0,98,0.00,,,0.30,WUHU21636XXSP,2013-01-24 04:59:00,
2013-01-23 21:01:00,38.8,38.2,30.04,SE,135,0.0,0.0,98,0.00,,,0.30,WUHU21636XXSP,2013-01-24 05:01:00,
2013-01-23 21:03:00,38.8,38.2,30.05,SE,135,0.0,0.0,98,0.00,,,0.30,WUHU21636XXSP,2013-01-24 05:03:00,
2013-01-23 21:06:00,38.8,38.2,30.05,SE,135,0.0,0.0,98,0.00,,,0.30,WUHU21636XXSP,2013-01-24 05:06:00,
2013-01-23 21:08:00,38.7,38.1,30.05,SE,135,0.0,0.0,98,0.00,,,0.30,WUHU21636XXSP,2013-01-24 05:08:00,
2013-01-23 21:11:00,38.5,37.9,30.05,SE,135,0.0,0.0,98,0.00,,,0.30,WUHU21636XXSP,2013-01-24 05:11:00,
2013-01-23 21:13:00,38.5,37.9,30.05,SE,135,0.0,0.0,98,0.00,,,0.30,WUHU21636XXSP,2013-01-24 05:13:00,
2013-01-23 21:16:00,38.3,37.7,30.05,SE,135,0.0,0.0,98,0.00,,,0.30,WUHU21636XXSP,2013-01-24 05:16:00,
2013-01-23 21:18:00,38.3,37.7,30.05,SE,135,0.0,0.0,98,0.00,,,0.30,WUHU21636XXSP,2013-01-24 05:18:00,
2013-01-23 21:19:00,38.3,37.7,30.05,SE,135,0.0,0.0,98,0.00,,,0.30,WUHU21636XXSP,2013-01-24 05:19:00,
2013-01-23 21:21:00,38.1,37.5,30.05,SE,135,0.0,0.0,98,0.00,,,0.30,WUHU21636XXSP,2013-01-24 05:21:00,
2013-01-23 21:24:00,38.1,37.5,30.06,SE,135,0.0,0.0,98,0.00,,,0.30,WUHU21636XXSP,2013-01-24 05:24:00,
2013-01-23 21:26:00,37.9,37.3,30.06,SE,135,0.0,0.0,98,0.00,,,0.30,WUHU21636XXSP,2013-01-24 05:26:00,
2013-01-23 21:27:00,37.9,37.3,30.06,SE,135,0.0,0.0,98,0.00,,,0.30,WUHU21636XXSP,2013-01-24 05:27:00,
2013-01-23 21:29:00,37.9,37.3,30.06,SE,135,0.0,0.0,98,0.00,,,0.30,WUHU21636XXSP,2013-01-24 05:29:00,
2013-01-23 21:32:00,37.9,37.3,30.06,SE,135,0.0,0.0,98,0.00,,,0.30,WUHU21636XXSP,2013-01-24 05:32:00,
2013-01-23 21:34:00,37.9,37.3,30.06,SE,135,0.0,0.0,98,0.00,,,0.30,WUHU21636XXSP,2013-01-24 05:34:00,
2013-01-23 21:37:00,37.9,37.3,30.07,SE,135,0.0,0.0,98,0.00,,,0.30,WUHU21636XXSP,2013-01-24 05:37:00,
2013-01-23 21:39:00,38.1,37.5,30.07,SE,135,0.0,0.0,98,0.00,,,0.30,WUHU21636XXSP,2013-01-24 05:39:00,
2013-01-23 21:42:00,38.1,37.5,30.07,NE,45,0.0,0.0,98,0.00,,,0.30,WUHU21636XXSP,2013-01-24 05:42:00,
2013-01-23 21:44:00,38.1,37.5,30.07,NNE,22,0.0,0.0,98,0.00,,,0.30,WUHU21636XXSP,2013-01-24 05:44:00,
2013-01-23 21:45:00,38.1,37.5,30.07,NNE,22,0.0,0.0,98,0.00,,,0.30,WUHU21636XXSP,2013-01-24 05:45:00,
2013-01-23 21:47:00,38.1,37.5,30.07,NNE,22,0.0,0.0,98,0.00,,,0.30,WUHU21636XXSP,2013-01-24 05:47:00,
2013-01-23 21:50:00,38.3,37.7,30.07,NNE,22,0.0,0.0,98,0.00,,,0.30,WUHU21636XXSP,2013-01-24 05:50:00,
2013-01-23 21:52:00,38.3,37.7,30.07,NNE,22,0.0,0.0,98,0.00,,,0.30,WUHU21636XXSP,2013-01-24 05:52:00,
2013-01-23 21:55:00,38.3,37.7,30.07,NNE,22,0.0,0.0,98,0.00,,,0.30,WUHU21636XXSP,2013-01-24 05:55:00,
2013-01-23 21:57:00,38.5,37.9,30.08,NNE,22,0.0,0.0,98,0.00,,,0.30,WUHU21636XXSP,2013-01-24 05:57:00,
2013-01-23 22:00:00,38.5,37.9,30.08,NNE,22,0.0,0.0,98,0.00,,,0.30,WUHU21636XXSP,2013-01-24 06:00:00,
2013-01-23 22:01:00,38.5,37.9,30.08,NNE,22,0.0,0.0,98,0.00,,,0.30,WUHU21636XXSP,2013-01-24 06:01:00,
2013-01-23 22:02:00,38.5,37.9,30.08,NNE,22,0.0,0.0,98,0.00,,,0.30,WUHU21636XXSP,2013-01-24 06:02:00,
2013-01-23 22:03:00,38.5,37.9,30.08,NNE,22,0.0,0.0,98,0.00,,,0.30,WUHU21636XXSP,2013-01-24 06:03:00,
2013-01-23 22:05:00,38.7,38.1,30.08,NNE,22,0.0,0.0,98,0.00,,,0.30,WUHU21636XXSP,2013-01-24 06:05:00,
2013-01-23 22:06:00,38.7,38.1,30.08,NNE,22,0.0,0.0,98,0.00,,,0.30,WUHU21636XXSP,2013-01-24 06:06:00,
2013-01-23 22:07:00,38.7,38.1,30.09,NNE,22,0.0,0.0,98,0.00,,,0.30,WUHU21636XXSP,2013-01-24 06:07:00,
2013-01-23 22:08:00,38.7,38.1,30.09,NNE,22,0.0,0.0,98,0.00,,,0.30,WUHU21636XXSP,2013-01-24 06:08:00,
2013-01-23 22:10:00,38.7,38.1,30.09,NNE,22,0.0,0.0,98,0.00,,,0.30,WUHU21636XXSP,2013-01-24 06:10:00,
2013-01-23 22:11:00,38.8,38.2,30.09,NNE,22,0.0,0.0,98,0.00,,,0.30,WUHU21636XXSP,2013-01-24 06:11:00,
2013-01-23 22:12:00,38.8,38.2,30.09,NNE,22,0.0,0.0,98,0.00,,,0.30,WUHU21636XXSP,2013-01-24 06:12:00,
2013-01-23 22:13:00,38.8,38.2,30.09,NNE,22,0.0,0.0,98,0.00,,,0.30,WUHU21636XXSP,2013-01-24 06:13:00,
2013-01-23 22:16:00,38.8,38.2,30.09,NNE,22,0.0,0.0,98,0.00,,,0.30,WUHU21636XXSP,2013-01-24 06:16:00,
2013-01-23 22:17:00,38.8,38.2,30.09,NNE,22,0.0,0.0,98,0.00,,,0.30,WUHU21636XXSP,2013-01-24 06:17:00,
2013-01-23 22:18:00,38.8,38.2,30.09,NNE,22,0.0,0.0,98,0.00,,,0.30,WUHU21636XXSP,2013-01-24 06:18:00,
2013-01-23 22:21:00,38.8,38.2,30.09,NNE,22,0.0,0.0,98,0.00,,,0.30,WUHU21636XXSP,2013-01-24 06:21:00,
2013-01-23 22:22:00,38.8,38.2,30.09,NNE,22,0.0,0.0,98,0.00,,,0.30,WUHU21636XXSP,2013-01-24 06:22:00,
2013-01-23 22:23:00,38.8,38.2,30.09,NNE,22,0.0,0.0,98,0.00,,,0.30,WUHU21636XXSP,2013-01-24 06:23:00,
2013-01-23 22:26:00,38.8,38.2,30.09,NNE,22,0.0,0.0,98,0.00,,,0.30,WUHU21636XXSP,2013-01-24 06:26:00,
2013-01-23 22:27:00,38.8,38.2,30.09,NNE,22,0.0,0.0,98,0.00,,,0.30,WUHU21636XXSP,2013-01-24 06:27:00,
2013-01-23 22:28:00,38.8,38.2,30.09,NNE,22,0.0,0.0,98,0.00,,,0.30,WUHU21636XXSP,2013-01-24 06:28:00,
2013-01-23 22:31:00,39.0,38.4,30.09,NNE,22,0.0,0.0,98,0.00,,,0.30,WUHU21636XXSP,2013-01-24 06:31:00,
2013-01-23 22:33:00,39.0,38.4,30.09,NNE,22,0.0,0.0,98,0.00,,,0.30,WUHU21636XXSP,2013-01-24 06:33:00,
2013-01-23 22:34:00,39.0,38.4,30.09,NNE,22,0.0,0.0,98,0.00,,,0.30,WUHU21636XXSP,2013-01-24 06:34:00,
2013-01-23 22:36:00,39.2,38.6,30.09,NNE,22,0.0,0.0,98,0.00,,,0.30,WUHU21636XXSP,2013-01-24 06:36:00,
2013-01-23 22:38:00,39.4,38.8,30.09,NNE,22,0.0,0.0,98,0.00,,,0.30,WUHU21636XXSP,2013-01-24 06:38:00,
2013-01-23 22:39:00,39.4,38.8,30.09,NNE,22,0.0,0.0,98,0.00,,,0.30,WUHU21636XXSP,2013-01-24 06:39:00,
2013-01-23 22:41:00,39.4,38.8,30.09,NNE,22,0.0,0.0,98,0.00,,,0.30,WUHU21636XXSP,2013-01-24 06:41:00,
2013-01-23 22:43:00,39.4,38.8,30.09,NNE,22,0.0,0.0,98,0.00,,,0.30,WUHU21636XXSP,2013-01-24 06:43:00,
2013-01-23 22:44:00,39.4,38.8,30.09,NNE,22,0.0,0.0,98,0.00,,,0.30,WUHU21636XXSP,2013-01-24 06:44:00,
2013-01-23 22:46:00,39.4,38.8,30.10,NNE,22,0.0,0.0,98,0.00,,,0.30,WUHU21636XXSP,2013-01-24 06:46:00,
2013-01-23 22:47:00,39.4,38.8,30.10,NNE,22,0.0,0.0,98,0.00,,,0.30,WUHU21636XXSP,2013-01-24 06:47:00,
2013-01-23 22:48:00,39.4,38.8,30.09,NNE,22,0.0,0.0,98,0.00,,,0.30,WUHU21636XXSP,2013-01-24 06:48:00,
2013-01-23 22:49:00,39.4,38.8,30.09,NNE,22,0.0,0.0,98,0.00,,,0.30,WUHU21636XXSP,2013-01-24 06:49:00,
2013-01-23 22:51:00,39.4,38.8,30.10,NNE,22,0.0,0.0,98,0.00,,,0.30,WUHU21636XXSP,2013-01-24 06:51:00,
2013-01-23 22:52:00,39.4,38.8,30.10,NNE,22,0.0,0.0,98,0.00,,,0.30,WUHU21636XXSP,2013-01-24 06:52:00,
2013-01-23 22:53:00,39.4,38.8,30.10,NNE,22,0.0,0.0,98,0.00,,,0.30,WUHU21636XXSP,2013-01-24 06:53:00,
2013-01-23 22:54:00,39.4,38.8,30.10,NNE,22,0.0,0.0,98,0.00,,,0.30,WUHU21636XXSP,2013-01-24 06:54:00,
2013-01-23 22:56:00,39.4,38.8,30.11,NNE,22,0.0,0.0,98,0.00,,,0.30,WUHU21636XXSP,2013-01-24 06:56:00,
2013-01-23 22:57:00,39.4,38.8,30.11,NNE,22,0.0,0.0,98,0.00,,,0.30,WUHU21636XXSP,2013-01-24 06:57:00,
2013-01-23 22:58:00,39.4,38.8,30.11,NNE,22,0.0,0.0,98,0.00,,,0.30,WUHU21636XXSP,2013-01-24 06:58:00,
2013-01-23 22:59:00,39.4,38.8,30.11,NNE,22,0.0,0.0,98,0.00,,,0.30,WUHU21636XXSP,2013-01-24 06:59:00,
2013-01-23 23:01:00,39.4,38.8,30.11,NNE,22,0.0,0.0,98,0.00,,,0.30,WUHU21636XXSP,2013-01-24 07:01:00,
2013-01-23 23:02:00,39.4,38.8,30.11,NNE,22,0.0,0.0,98,0.00,,,0.30,WUHU21636XXSP,2013-01-24 07:02:00,
2013-01-23 23:03:00,39.4,38.8,30.11,NNE,22,0.0,0.0,98,0.00,,,0.30,WUHU21636XXSP,2013-01-24 07:03:00,
2013-01-23 23:05:00,39.4,38.8,30.11,NNE,22,0.0,0.0,98,0.00,,,0.30,WUHU21636XXSP,2013-01-24 07:05:00,
2013-01-23 23:07:00,39.4,38.8,30.11,NNE,22,0.0,0.0,98,0.00,,,0.30,WUHU21636XXSP,2013-01-24 07:07:00,
2013-01-23 23:08:00,39.4,38.8,30.11,NNE,22,0.0,0.0,98,0.00,,,0.30,WUHU21636XXSP,2013-01-24 07:08:00,
2013-01-23 23:10:00,39.4,38.8,30.11,NNE,22,0.0,0.0,98,0.00,,,0.30,WUHU21636XXSP,2013-01-24 07:10:00,
2013-01-23 23:12:00,39.4,38.8,30.11,NNE,22,0.0,0.0,98,0.00,,,0.30,WUHU21636XXSP,2013-01-24 07:12:00,
2013-01-23 23:13:00,39.4,38.8,30.11,NNE,22,0.0,0.0,98,0.00,,,0.30,WUHU21636XXSP,2013-01-24 07:13:00,
2013-01-23 23:15:00,39.4,38.8,30.11,NNE,22,0.0,0.0,98,0.00,,,0.30,WUHU21636XXSP,2013-01-24 07:15:00,
2013-01-23 23:17:00,39.4,38.8,30.11,NNE,22,0.0,0.0,98,0.00,,,0.30,WUHU21636XXSP,2013-01-24 07:17:00,
2013-01-23 23:18:00,39.4,38.8,30.12,NNE,22,0.0,0.0,98,0.00,,,0.30,WUHU21636XXSP,2013-01-24 07:18:00,
2013-01-23 23:20:00,39.4,38.8,30.12,NNE,22,0.0,0.0,98,0.00,,,0.30,WUHU21636XXSP,2013-01-24 07:20:00,
2013-01-23 23:23:00,39.4,38.8,30.12,NNE,22,0.0,0.0,98,0.00,,,0.30,WUHU21636XXSP,2013-01-24 07:23:00,
2013-01-23 23:25:00,39.4,38.8,30.12,NNE,22,0.0,0.0,98,0.00,,,0.30,WUHU21636XXSP,2013-01-24 07:25:00,
2013-01-23 23:28:00,39.4,38.8,30.12,NNE,22,0.0,0.0,98,0.00,,,0.30,WUHU21636XXSP,2013-01-24 07:28:00,
2013-01-23 23:30:00,39.4,38.8,30.12,NNE,22,0.0,0.0,98,0.00,,,0.30,WUHU21636XXSP,2013-01-24 07:30:00,
2013-01-23 23:33:00,39.4,38.8,30.12,NNE,22,0.0,0.0,98,0.00,,,0.30,WUHU21636XXSP,2013-01-24 07:33:00,
2013-01-23 23:34:00,39.4,38.8,30.12,NNE,22,0.0,0.0,98,0.00,,,0.30,WUHU21636XXSP,2013-01-24 07:34:00,
2013-01-23 23:35:00,39.4,38.8,30.12,NNE,22,0.0,0.0,98,0.00,,,0.30,WUHU21636XXSP,2013-01-24 07:35:00,
2013-01-23 23:38:00,39.4,38.8,30.13,NNE,22,0.0,0.0,98,0.00,,,0.30,WUHU21636XXSP,2013-01-24 07:38:00,
2013-01-23 23:39:00,39.4,38.8,30.13,NNE,22,0.0,0.0,98,0.00,,,0.30,WUHU21636XXSP,2013-01-24 07:39:00,
2013-01-23 23:40:00,39.4,38.8,30.13,NNE,22,0.0,0.0,98,0.00,,,0.30,WUHU21636XXSP,2013-01-24 07:40:00,
2013-01-23 23:43:00,39.4,38.8,30.13,NNE,22,0.0,0.0,98,0.00,,,0.30,WUHU21636XXSP,2013-01-24 07:43:00,
2013-01-23 23:44:00,39.4,38.8,30.13,NNE,22,0.0,0.0,98,0.00,,,0.30,WUHU21636XXSP,2013-01-24 07:44:00,
2013-01-23 23:46:00,39.4,38.8,30.13,NNE,22,0.0,0.0,98,0.00,,,0.30,WUHU21636XXSP,2013-01-24 07:46:00,
2013-01-23 23:48:00,39.4,38.8,30.14,NNE,22,0.0,0.0,98,0.00,,,0.30,WUHU21636XXSP,2013-01-24 07:48:00,
2013-01-23 23:49:00,39.4,38.8,30.13,NNE,22,0.0,0.0,98,0.00,,,0.30,WUHU21636XXSP,2013-01-24 07:49:00,
2013-01-23 23:50:00,39.4,38.8,30.13,NNE,22,0.0,0.0,98,0.00,,,0.30,WUHU21636XXSP,2013-01-24 07:50:00,
2013-01-23 23:51:00,39.4,38.8,30.14,NNE,22,0.0,0.0,98,0.00,,,0.30,WUHU21636XXSP,2013-01-24 07:51:00,
2013-01-23 23:53:00,39.4,38.8,30.14,NNE,22,0.0,0.0,98,0.00,,,0.30,WUHU21636XXSP,2013-01-24 07:53:00,
2013-01-23 23:54:00,39.4,38.8,30.14,NNE,22,0.0,0.0,98,0.00,,,0.30,WUHU21636XXSP,2013-01-24 07:54:00,
2013-01-23 23:55:00,39.4,38.8,30.14,NNE,22,0.0,0.0,98,0.00,,,0.30,WUHU21636XXSP,2013-01-24 07:55:00,
2013-01-23 23:56:00,39.4,38.8,30.14,NNE,22,0.0,0.0,98,0.00,,,0.30,WUHU21636XXSP,2013-01-24 07:56:00,
2013-01-23 23:58:00,39.6,39.0,30.14,NNE,22,0.0,0.0,98,0.00,,,0.30,WUHU21636XXSP,2013-01-24 07:58:00,
2013-01-23 23:59:00,39.6,39.0,30.14,NNE,22,0.0,0.0,98,0.00,,,0.30,WUHU21636XXSP,2013-01-24 07:59:00,